<?xml version="1.0" encoding="UTF-8" standalone="no" ?>
<gpx xmlns="http://www.topografix.com/GPX/1/1" xmlns:xsi="http://www.w3.org/2001/XMLSchema-instance" xsi:schemaLocation="http://www.topografix.com/GPX/1/1 http://www.topografix.com/GPX/1/1/gpx.xsd" version="1.1" creator="VisuGPX - https://www.visugpx.com">
  <metadata>
    <name>Belledone secteur aiguilles  d'argentière</name>
  </metadata>
  <trk>
    <name><![CDATA[Belledone secteur aiguilles  d'argentière]]></name>
    <trkseg>
      <trkpt lat="45.24677" lon="6.17684">
        <ele>1739</ele>
        <time>2022-05-07T05:06:40.517Z</time>
      </trkpt>
      <trkpt lat="45.24677" lon="6.17684">
        <ele>1739</ele>
        <time>2022-05-07T05:06:41.106Z</time>
      </trkpt>
      <trkpt lat="45.24676" lon="6.17685">
        <ele>1739</ele>
        <time>2022-05-07T05:06:47.092Z</time>
      </trkpt>
      <trkpt lat="45.24676" lon="6.17685">
        <ele>1739</ele>
        <time>2022-05-07T05:07:27.129Z</time>
      </trkpt>
      <trkpt lat="45.24686" lon="6.17715">
        <ele>1734</ele>
        <time>2022-05-07T05:07:28.097Z</time>
      </trkpt>
      <trkpt lat="45.2468" lon="6.17725">
        <ele>1733</ele>
        <time>2022-05-07T05:07:40.079Z</time>
      </trkpt>
      <trkpt lat="45.24673" lon="6.17716">
        <ele>1732</ele>
        <time>2022-05-07T05:07:50.160Z</time>
      </trkpt>
      <trkpt lat="45.24666" lon="6.17706">
        <ele>1732</ele>
        <time>2022-05-07T05:08:00.098Z</time>
      </trkpt>
      <trkpt lat="45.24657" lon="6.17701">
        <ele>1733</ele>
        <time>2022-05-07T05:08:07.104Z</time>
      </trkpt>
      <trkpt lat="45.2465" lon="6.17694">
        <ele>1734</ele>
        <time>2022-05-07T05:08:14.122Z</time>
      </trkpt>
      <trkpt lat="45.24641" lon="6.17689">
        <ele>1736</ele>
        <time>2022-05-07T05:08:23.119Z</time>
      </trkpt>
      <trkpt lat="45.24632" lon="6.17683">
        <ele>1737</ele>
        <time>2022-05-07T05:08:32.131Z</time>
      </trkpt>
      <trkpt lat="45.24624" lon="6.17677">
        <ele>1738</ele>
        <time>2022-05-07T05:08:40.066Z</time>
      </trkpt>
      <trkpt lat="45.24615" lon="6.17671">
        <ele>1739</ele>
        <time>2022-05-07T05:08:50.176Z</time>
      </trkpt>
      <trkpt lat="45.24606" lon="6.17666">
        <ele>1740</ele>
        <time>2022-05-07T05:09:00.128Z</time>
      </trkpt>
      <trkpt lat="45.24597" lon="6.1766">
        <ele>1740</ele>
        <time>2022-05-07T05:09:08.111Z</time>
      </trkpt>
      <trkpt lat="45.2459" lon="6.17651">
        <ele>1741</ele>
        <time>2022-05-07T05:09:18.175Z</time>
      </trkpt>
      <trkpt lat="45.2458" lon="6.17647">
        <ele>1742</ele>
        <time>2022-05-07T05:09:28.176Z</time>
      </trkpt>
      <trkpt lat="45.24571" lon="6.1764">
        <ele>1744</ele>
        <time>2022-05-07T05:09:37.093Z</time>
      </trkpt>
      <trkpt lat="45.24563" lon="6.17633">
        <ele>1746</ele>
        <time>2022-05-07T05:09:47.138Z</time>
      </trkpt>
      <trkpt lat="45.24556" lon="6.17625">
        <ele>1749</ele>
        <time>2022-05-07T05:09:57.183Z</time>
      </trkpt>
      <trkpt lat="45.24547" lon="6.17621">
        <ele>1750</ele>
        <time>2022-05-07T05:10:04.182Z</time>
      </trkpt>
      <trkpt lat="45.24538" lon="6.17617">
        <ele>1752</ele>
        <time>2022-05-07T05:10:12.150Z</time>
      </trkpt>
      <trkpt lat="45.24529" lon="6.1761">
        <ele>1753</ele>
        <time>2022-05-07T05:10:21.098Z</time>
      </trkpt>
      <trkpt lat="45.24523" lon="6.17599">
        <ele>1755</ele>
        <time>2022-05-07T05:10:29.199Z</time>
      </trkpt>
      <trkpt lat="45.2452" lon="6.17587">
        <ele>1756</ele>
        <time>2022-05-07T05:10:39.133Z</time>
      </trkpt>
      <trkpt lat="45.24511" lon="6.17581">
        <ele>1757</ele>
        <time>2022-05-07T05:10:46.186Z</time>
      </trkpt>
      <trkpt lat="45.24502" lon="6.17577">
        <ele>1758</ele>
        <time>2022-05-07T05:10:55.180Z</time>
      </trkpt>
      <trkpt lat="45.24493" lon="6.17572">
        <ele>1759</ele>
        <time>2022-05-07T05:11:07.083Z</time>
      </trkpt>
      <trkpt lat="45.24488" lon="6.17562">
        <ele>1760</ele>
        <time>2022-05-07T05:11:18.167Z</time>
      </trkpt>
      <trkpt lat="45.24484" lon="6.1755">
        <ele>1760</ele>
        <time>2022-05-07T05:11:26.105Z</time>
      </trkpt>
      <trkpt lat="45.24479" lon="6.17539">
        <ele>1761</ele>
        <time>2022-05-07T05:11:34.193Z</time>
      </trkpt>
      <trkpt lat="45.24473" lon="6.17528">
        <ele>1761</ele>
        <time>2022-05-07T05:11:44.161Z</time>
      </trkpt>
      <trkpt lat="45.24466" lon="6.17519">
        <ele>1762</ele>
        <time>2022-05-07T05:11:55.147Z</time>
      </trkpt>
      <trkpt lat="45.24458" lon="6.1751">
        <ele>1763</ele>
        <time>2022-05-07T05:12:03.180Z</time>
      </trkpt>
      <trkpt lat="45.2445" lon="6.17504">
        <ele>1764</ele>
        <time>2022-05-07T05:12:10.167Z</time>
      </trkpt>
      <trkpt lat="45.24442" lon="6.17499">
        <ele>1765</ele>
        <time>2022-05-07T05:12:19.187Z</time>
      </trkpt>
      <trkpt lat="45.24433" lon="6.17491">
        <ele>1766</ele>
        <time>2022-05-07T05:12:28.160Z</time>
      </trkpt>
      <trkpt lat="45.24425" lon="6.17483">
        <ele>1767</ele>
        <time>2022-05-07T05:12:36.167Z</time>
      </trkpt>
      <trkpt lat="45.24417" lon="6.17475">
        <ele>1769</ele>
        <time>2022-05-07T05:12:43.100Z</time>
      </trkpt>
      <trkpt lat="45.2441" lon="6.17467">
        <ele>1770</ele>
        <time>2022-05-07T05:12:51.187Z</time>
      </trkpt>
      <trkpt lat="45.24403" lon="6.17458">
        <ele>1772</ele>
        <time>2022-05-07T05:13:00.179Z</time>
      </trkpt>
      <trkpt lat="45.24398" lon="6.17446">
        <ele>1774</ele>
        <time>2022-05-07T05:13:10.081Z</time>
      </trkpt>
      <trkpt lat="45.24394" lon="6.17434">
        <ele>1775</ele>
        <time>2022-05-07T05:13:20.144Z</time>
      </trkpt>
      <trkpt lat="45.24389" lon="6.17423">
        <ele>1776</ele>
        <time>2022-05-07T05:13:30.092Z</time>
      </trkpt>
      <trkpt lat="45.24384" lon="6.17411">
        <ele>1777</ele>
        <time>2022-05-07T05:13:43.097Z</time>
      </trkpt>
      <trkpt lat="45.24378" lon="6.17401">
        <ele>1778</ele>
        <time>2022-05-07T05:13:51.114Z</time>
      </trkpt>
      <trkpt lat="45.24376" lon="6.17399">
        <ele>1779</ele>
        <time>2022-05-07T05:14:06.160Z</time>
      </trkpt>
      <trkpt lat="45.24376" lon="6.17399">
        <ele>1779</ele>
        <time>2022-05-07T05:14:26.138Z</time>
      </trkpt>
      <trkpt lat="45.24358" lon="6.17378">
        <ele>1781</ele>
        <time>2022-05-07T05:14:27.161Z</time>
      </trkpt>
      <trkpt lat="45.24351" lon="6.1737">
        <ele>1782</ele>
        <time>2022-05-07T05:14:37.136Z</time>
      </trkpt>
      <trkpt lat="45.24342" lon="6.17363">
        <ele>1782</ele>
        <time>2022-05-07T05:14:46.154Z</time>
      </trkpt>
      <trkpt lat="45.24334" lon="6.17357">
        <ele>1783</ele>
        <time>2022-05-07T05:14:54.134Z</time>
      </trkpt>
      <trkpt lat="45.24326" lon="6.17348">
        <ele>1784</ele>
        <time>2022-05-07T05:15:05.147Z</time>
      </trkpt>
      <trkpt lat="45.24323" lon="6.17335">
        <ele>1785</ele>
        <time>2022-05-07T05:15:14.097Z</time>
      </trkpt>
      <trkpt lat="45.24318" lon="6.17324">
        <ele>1786</ele>
        <time>2022-05-07T05:15:23.170Z</time>
      </trkpt>
      <trkpt lat="45.24312" lon="6.17313">
        <ele>1787</ele>
        <time>2022-05-07T05:15:33.125Z</time>
      </trkpt>
      <trkpt lat="45.24308" lon="6.17302">
        <ele>1788</ele>
        <time>2022-05-07T05:15:42.151Z</time>
      </trkpt>
      <trkpt lat="45.24303" lon="6.1729">
        <ele>1790</ele>
        <time>2022-05-07T05:15:50.133Z</time>
      </trkpt>
      <trkpt lat="45.24297" lon="6.1728">
        <ele>1791</ele>
        <time>2022-05-07T05:15:59.198Z</time>
      </trkpt>
      <trkpt lat="45.24293" lon="6.17268">
        <ele>1793</ele>
        <time>2022-05-07T05:16:09.100Z</time>
      </trkpt>
      <trkpt lat="45.24289" lon="6.17256">
        <ele>1794</ele>
        <time>2022-05-07T05:16:22.130Z</time>
      </trkpt>
      <trkpt lat="45.24283" lon="6.17244">
        <ele>1795</ele>
        <time>2022-05-07T05:16:32.127Z</time>
      </trkpt>
      <trkpt lat="45.24281" lon="6.17232">
        <ele>1796</ele>
        <time>2022-05-07T05:16:41.184Z</time>
      </trkpt>
      <trkpt lat="45.24278" lon="6.17219">
        <ele>1797</ele>
        <time>2022-05-07T05:16:50.089Z</time>
      </trkpt>
      <trkpt lat="45.24277" lon="6.17206">
        <ele>1799</ele>
        <time>2022-05-07T05:16:59.154Z</time>
      </trkpt>
      <trkpt lat="45.24274" lon="6.17192">
        <ele>1801</ele>
        <time>2022-05-07T05:17:10.171Z</time>
      </trkpt>
      <trkpt lat="45.24272" lon="6.17179">
        <ele>1803</ele>
        <time>2022-05-07T05:17:19.173Z</time>
      </trkpt>
      <trkpt lat="45.24269" lon="6.17167">
        <ele>1805</ele>
        <time>2022-05-07T05:17:28.124Z</time>
      </trkpt>
      <trkpt lat="45.24267" lon="6.17154">
        <ele>1806</ele>
        <time>2022-05-07T05:17:38.187Z</time>
      </trkpt>
      <trkpt lat="45.24265" lon="6.17141">
        <ele>1807</ele>
        <time>2022-05-07T05:17:47.174Z</time>
      </trkpt>
      <trkpt lat="45.24263" lon="6.17127">
        <ele>1808</ele>
        <time>2022-05-07T05:17:57.183Z</time>
      </trkpt>
      <trkpt lat="45.24263" lon="6.17113">
        <ele>1809</ele>
        <time>2022-05-07T05:18:07.107Z</time>
      </trkpt>
      <trkpt lat="45.24261" lon="6.17099">
        <ele>1810</ele>
        <time>2022-05-07T05:18:17.175Z</time>
      </trkpt>
      <trkpt lat="45.24261" lon="6.17086">
        <ele>1812</ele>
        <time>2022-05-07T05:18:27.105Z</time>
      </trkpt>
      <trkpt lat="45.24262" lon="6.17072">
        <ele>1813</ele>
        <time>2022-05-07T05:18:37.177Z</time>
      </trkpt>
      <trkpt lat="45.24266" lon="6.1706">
        <ele>1814</ele>
        <time>2022-05-07T05:18:46.095Z</time>
      </trkpt>
      <trkpt lat="45.24269" lon="6.17048">
        <ele>1815</ele>
        <time>2022-05-07T05:18:54.166Z</time>
      </trkpt>
      <trkpt lat="45.24268" lon="6.17035">
        <ele>1816</ele>
        <time>2022-05-07T05:19:03.159Z</time>
      </trkpt>
      <trkpt lat="45.24269" lon="6.17021">
        <ele>1817</ele>
        <time>2022-05-07T05:19:12.222Z</time>
      </trkpt>
      <trkpt lat="45.2427" lon="6.17007">
        <ele>1818</ele>
        <time>2022-05-07T05:19:23.164Z</time>
      </trkpt>
      <trkpt lat="45.24274" lon="6.16995">
        <ele>1820</ele>
        <time>2022-05-07T05:19:33.158Z</time>
      </trkpt>
      <trkpt lat="45.2428" lon="6.16984">
        <ele>1824</ele>
        <time>2022-05-07T05:19:51.111Z</time>
      </trkpt>
      <trkpt lat="45.24288" lon="6.16977">
        <ele>1826</ele>
        <time>2022-05-07T05:20:05.104Z</time>
      </trkpt>
      <trkpt lat="45.24293" lon="6.16966">
        <ele>1829</ele>
        <time>2022-05-07T05:20:18.161Z</time>
      </trkpt>
      <trkpt lat="45.24301" lon="6.16958">
        <ele>1832</ele>
        <time>2022-05-07T05:20:31.126Z</time>
      </trkpt>
      <trkpt lat="45.24307" lon="6.16948">
        <ele>1835</ele>
        <time>2022-05-07T05:20:43.183Z</time>
      </trkpt>
      <trkpt lat="45.24314" lon="6.16938">
        <ele>1839</ele>
        <time>2022-05-07T05:20:56.154Z</time>
      </trkpt>
      <trkpt lat="45.24322" lon="6.16933">
        <ele>1843</ele>
        <time>2022-05-07T05:21:12.166Z</time>
      </trkpt>
      <trkpt lat="45.24331" lon="6.16926">
        <ele>1845</ele>
        <time>2022-05-07T05:21:25.109Z</time>
      </trkpt>
      <trkpt lat="45.24339" lon="6.16921">
        <ele>1848</ele>
        <time>2022-05-07T05:21:42.151Z</time>
      </trkpt>
      <trkpt lat="45.24348" lon="6.16923">
        <ele>1850</ele>
        <time>2022-05-07T05:21:52.094Z</time>
      </trkpt>
      <trkpt lat="45.24357" lon="6.16921">
        <ele>1851</ele>
        <time>2022-05-07T05:22:02.164Z</time>
      </trkpt>
      <trkpt lat="45.24366" lon="6.16922">
        <ele>1850</ele>
        <time>2022-05-07T05:22:12.166Z</time>
      </trkpt>
      <trkpt lat="45.24375" lon="6.16922">
        <ele>1849</ele>
        <time>2022-05-07T05:22:20.179Z</time>
      </trkpt>
      <trkpt lat="45.24385" lon="6.1692">
        <ele>1848</ele>
        <time>2022-05-07T05:22:29.159Z</time>
      </trkpt>
      <trkpt lat="45.24393" lon="6.16916">
        <ele>1846</ele>
        <time>2022-05-07T05:22:41.117Z</time>
      </trkpt>
      <trkpt lat="45.24403" lon="6.16911">
        <ele>1846</ele>
        <time>2022-05-07T05:22:54.163Z</time>
      </trkpt>
      <trkpt lat="45.24412" lon="6.16916">
        <ele>1847</ele>
        <time>2022-05-07T05:23:06.121Z</time>
      </trkpt>
      <trkpt lat="45.24421" lon="6.16922">
        <ele>1848</ele>
        <time>2022-05-07T05:23:21.140Z</time>
      </trkpt>
      <trkpt lat="45.24429" lon="6.16927">
        <ele>1849</ele>
        <time>2022-05-07T05:23:34.163Z</time>
      </trkpt>
      <trkpt lat="45.24438" lon="6.16922">
        <ele>1851</ele>
        <time>2022-05-07T05:23:48.113Z</time>
      </trkpt>
      <trkpt lat="45.24444" lon="6.16912">
        <ele>1854</ele>
        <time>2022-05-07T05:24:04.149Z</time>
      </trkpt>
      <trkpt lat="45.24452" lon="6.16905">
        <ele>1858</ele>
        <time>2022-05-07T05:24:17.127Z</time>
      </trkpt>
      <trkpt lat="45.2446" lon="6.169">
        <ele>1865</ele>
        <time>2022-05-07T05:24:37.103Z</time>
      </trkpt>
      <trkpt lat="45.24469" lon="6.16895">
        <ele>1867</ele>
        <time>2022-05-07T05:24:48.133Z</time>
      </trkpt>
      <trkpt lat="45.24479" lon="6.16893">
        <ele>1868</ele>
        <time>2022-05-07T05:25:00.167Z</time>
      </trkpt>
      <trkpt lat="45.24487" lon="6.16887">
        <ele>1867</ele>
        <time>2022-05-07T05:25:14.165Z</time>
      </trkpt>
      <trkpt lat="45.24496" lon="6.16882">
        <ele>1866</ele>
        <time>2022-05-07T05:25:24.160Z</time>
      </trkpt>
      <trkpt lat="45.24504" lon="6.16876">
        <ele>1865</ele>
        <time>2022-05-07T05:25:39.112Z</time>
      </trkpt>
      <trkpt lat="45.24513" lon="6.16873">
        <ele>1867</ele>
        <time>2022-05-07T05:25:52.168Z</time>
      </trkpt>
      <trkpt lat="45.24521" lon="6.16865">
        <ele>1871</ele>
        <time>2022-05-07T05:26:10.155Z</time>
      </trkpt>
      <trkpt lat="45.2453" lon="6.16861">
        <ele>1874</ele>
        <time>2022-05-07T05:26:22.164Z</time>
      </trkpt>
      <trkpt lat="45.24538" lon="6.16854">
        <ele>1876</ele>
        <time>2022-05-07T05:26:38.114Z</time>
      </trkpt>
      <trkpt lat="45.24546" lon="6.16848">
        <ele>1878</ele>
        <time>2022-05-07T05:26:59.086Z</time>
      </trkpt>
      <trkpt lat="45.24552" lon="6.16839">
        <ele>1886</ele>
        <time>2022-05-07T05:27:30.096Z</time>
      </trkpt>
      <trkpt lat="45.24561" lon="6.16835">
        <ele>1891</ele>
        <time>2022-05-07T05:27:54.124Z</time>
      </trkpt>
      <trkpt lat="45.2457" lon="6.16832">
        <ele>1892</ele>
        <time>2022-05-07T05:28:12.164Z</time>
      </trkpt>
      <trkpt lat="45.24579" lon="6.16827">
        <ele>1892</ele>
        <time>2022-05-07T05:28:22.101Z</time>
      </trkpt>
      <trkpt lat="45.24587" lon="6.16819">
        <ele>1892</ele>
        <time>2022-05-07T05:28:36.139Z</time>
      </trkpt>
      <trkpt lat="45.24596" lon="6.16813">
        <ele>1894</ele>
        <time>2022-05-07T05:28:57.104Z</time>
      </trkpt>
      <trkpt lat="45.24605" lon="6.16812">
        <ele>1896</ele>
        <time>2022-05-07T05:29:10.161Z</time>
      </trkpt>
      <trkpt lat="45.24614" lon="6.16814">
        <ele>1897</ele>
        <time>2022-05-07T05:29:25.101Z</time>
      </trkpt>
      <trkpt lat="45.24623" lon="6.16813">
        <ele>1899</ele>
        <time>2022-05-07T05:29:37.083Z</time>
      </trkpt>
      <trkpt lat="45.24633" lon="6.16815">
        <ele>1901</ele>
        <time>2022-05-07T05:29:52.100Z</time>
      </trkpt>
      <trkpt lat="45.24639" lon="6.16813">
        <ele>1903</ele>
        <time>2022-05-07T05:30:08.117Z</time>
      </trkpt>
      <trkpt lat="45.24639" lon="6.16813">
        <ele>1903</ele>
        <time>2022-05-07T05:30:55.085Z</time>
      </trkpt>
      <trkpt lat="45.24659" lon="6.16797">
        <ele>1907</ele>
        <time>2022-05-07T05:30:56.085Z</time>
      </trkpt>
      <trkpt lat="45.24666" lon="6.16788">
        <ele>1912</ele>
        <time>2022-05-07T05:31:16.127Z</time>
      </trkpt>
      <trkpt lat="45.24672" lon="6.1678">
        <ele>1917</ele>
        <time>2022-05-07T05:31:36.161Z</time>
      </trkpt>
      <trkpt lat="45.24672" lon="6.1678">
        <ele>1917</ele>
        <time>2022-05-07T05:32:33.118Z</time>
      </trkpt>
      <trkpt lat="45.24683" lon="6.16751">
        <ele>1933</ele>
        <time>2022-05-07T05:32:34.092Z</time>
      </trkpt>
      <trkpt lat="45.24685" lon="6.16748">
        <ele>1936</ele>
        <time>2022-05-07T05:32:45.108Z</time>
      </trkpt>
      <trkpt lat="45.24685" lon="6.16748">
        <ele>1936</ele>
        <time>2022-05-07T05:33:56.134Z</time>
      </trkpt>
      <trkpt lat="45.24704" lon="6.1673">
        <ele>1957</ele>
        <time>2022-05-07T05:33:57.122Z</time>
      </trkpt>
      <trkpt lat="45.24704" lon="6.16728">
        <ele>1957</ele>
        <time>2022-05-07T05:34:07.122Z</time>
      </trkpt>
      <trkpt lat="45.24704" lon="6.16728">
        <ele>1957</ele>
        <time>2022-05-07T05:35:34.088Z</time>
      </trkpt>
      <trkpt lat="45.24717" lon="6.16702">
        <ele>1955</ele>
        <time>2022-05-07T05:35:35.106Z</time>
      </trkpt>
      <trkpt lat="45.24725" lon="6.16695">
        <ele>1956</ele>
        <time>2022-05-07T05:35:52.175Z</time>
      </trkpt>
      <trkpt lat="45.24733" lon="6.16688">
        <ele>1957</ele>
        <time>2022-05-07T05:36:08.102Z</time>
      </trkpt>
      <trkpt lat="45.24741" lon="6.1668">
        <ele>1958</ele>
        <time>2022-05-07T05:36:24.205Z</time>
      </trkpt>
      <trkpt lat="45.24745" lon="6.16669">
        <ele>1960</ele>
        <time>2022-05-07T05:36:42.153Z</time>
      </trkpt>
      <trkpt lat="45.2475" lon="6.16658">
        <ele>1962</ele>
        <time>2022-05-07T05:37:01.176Z</time>
      </trkpt>
      <trkpt lat="45.24758" lon="6.16649">
        <ele>1964</ele>
        <time>2022-05-07T05:37:17.154Z</time>
      </trkpt>
      <trkpt lat="45.24766" lon="6.16641">
        <ele>1965</ele>
        <time>2022-05-07T05:37:33.207Z</time>
      </trkpt>
      <trkpt lat="45.24772" lon="6.16632">
        <ele>1965</ele>
        <time>2022-05-07T05:37:49.165Z</time>
      </trkpt>
      <trkpt lat="45.24779" lon="6.16623">
        <ele>1965</ele>
        <time>2022-05-07T05:38:02.182Z</time>
      </trkpt>
      <trkpt lat="45.24784" lon="6.16614">
        <ele>1967</ele>
        <time>2022-05-07T05:38:21.168Z</time>
      </trkpt>
      <trkpt lat="45.24784" lon="6.16614">
        <ele>1967</ele>
        <time>2022-05-07T05:38:59.122Z</time>
      </trkpt>
      <trkpt lat="45.24801" lon="6.1659">
        <ele>1975</ele>
        <time>2022-05-07T05:39:00.122Z</time>
      </trkpt>
      <trkpt lat="45.24805" lon="6.16579">
        <ele>1980</ele>
        <time>2022-05-07T05:39:22.116Z</time>
      </trkpt>
      <trkpt lat="45.24807" lon="6.16577">
        <ele>1981</ele>
        <time>2022-05-07T05:39:31.137Z</time>
      </trkpt>
      <trkpt lat="45.24807" lon="6.16577">
        <ele>1981</ele>
        <time>2022-05-07T05:40:18.125Z</time>
      </trkpt>
      <trkpt lat="45.24829" lon="6.16567">
        <ele>1984</ele>
        <time>2022-05-07T05:40:19.086Z</time>
      </trkpt>
      <trkpt lat="45.24836" lon="6.16559">
        <ele>1984</ele>
        <time>2022-05-07T05:40:43.153Z</time>
      </trkpt>
      <trkpt lat="45.24842" lon="6.16549">
        <ele>1987</ele>
        <time>2022-05-07T05:41:04.126Z</time>
      </trkpt>
      <trkpt lat="45.24849" lon="6.16553">
        <ele>1993</ele>
        <time>2022-05-07T05:41:38.120Z</time>
      </trkpt>
      <trkpt lat="45.24849" lon="6.16553">
        <ele>1993</ele>
        <time>2022-05-07T05:48:04.147Z</time>
      </trkpt>
      <trkpt lat="45.24848" lon="6.16521">
        <ele>2001</ele>
        <time>2022-05-07T05:48:05.165Z</time>
      </trkpt>
      <trkpt lat="45.24855" lon="6.16511">
        <ele>2001</ele>
        <time>2022-05-07T05:48:21.175Z</time>
      </trkpt>
      <trkpt lat="45.24861" lon="6.16501">
        <ele>2001</ele>
        <time>2022-05-07T05:48:36.176Z</time>
      </trkpt>
      <trkpt lat="45.2486" lon="6.16488">
        <ele>2001</ele>
        <time>2022-05-07T05:48:53.159Z</time>
      </trkpt>
      <trkpt lat="45.24867" lon="6.16481">
        <ele>2004</ele>
        <time>2022-05-07T05:49:19.158Z</time>
      </trkpt>
      <trkpt lat="45.24868" lon="6.16468">
        <ele>2008</ele>
        <time>2022-05-07T05:49:46.154Z</time>
      </trkpt>
      <trkpt lat="45.24872" lon="6.16455">
        <ele>2012</ele>
        <time>2022-05-07T05:50:07.138Z</time>
      </trkpt>
      <trkpt lat="45.24878" lon="6.16445">
        <ele>2014</ele>
        <time>2022-05-07T05:50:20.139Z</time>
      </trkpt>
      <trkpt lat="45.24887" lon="6.16437">
        <ele>2018</ele>
        <time>2022-05-07T05:50:37.131Z</time>
      </trkpt>
      <trkpt lat="45.24893" lon="6.16426">
        <ele>2021</ele>
        <time>2022-05-07T05:50:53.119Z</time>
      </trkpt>
      <trkpt lat="45.24901" lon="6.16419">
        <ele>2023</ele>
        <time>2022-05-07T05:51:10.126Z</time>
      </trkpt>
      <trkpt lat="45.24904" lon="6.16407">
        <ele>2025</ele>
        <time>2022-05-07T05:51:23.135Z</time>
      </trkpt>
      <trkpt lat="45.24902" lon="6.16395">
        <ele>2028</ele>
        <time>2022-05-07T05:51:42.125Z</time>
      </trkpt>
      <trkpt lat="45.24909" lon="6.16387">
        <ele>2033</ele>
        <time>2022-05-07T05:52:01.165Z</time>
      </trkpt>
      <trkpt lat="45.24918" lon="6.16383">
        <ele>2035</ele>
        <time>2022-05-07T05:52:14.154Z</time>
      </trkpt>
      <trkpt lat="45.24927" lon="6.16382">
        <ele>2037</ele>
        <time>2022-05-07T05:52:26.169Z</time>
      </trkpt>
      <trkpt lat="45.24937" lon="6.16384">
        <ele>2039</ele>
        <time>2022-05-07T05:52:40.195Z</time>
      </trkpt>
      <trkpt lat="45.24942" lon="6.16379">
        <ele>2042</ele>
        <time>2022-05-07T05:52:59.158Z</time>
      </trkpt>
      <trkpt lat="45.24942" lon="6.16379">
        <ele>2042</ele>
        <time>2022-05-07T05:53:44.143Z</time>
      </trkpt>
      <trkpt lat="45.24956" lon="6.16353">
        <ele>2049</ele>
        <time>2022-05-07T05:53:45.114Z</time>
      </trkpt>
      <trkpt lat="45.24962" lon="6.16343">
        <ele>2050</ele>
        <time>2022-05-07T05:54:01.113Z</time>
      </trkpt>
      <trkpt lat="45.24966" lon="6.16331">
        <ele>2053</ele>
        <time>2022-05-07T05:54:12.126Z</time>
      </trkpt>
      <trkpt lat="45.24969" lon="6.16318">
        <ele>2056</ele>
        <time>2022-05-07T05:54:27.165Z</time>
      </trkpt>
      <trkpt lat="45.24966" lon="6.16306">
        <ele>2060</ele>
        <time>2022-05-07T05:54:42.179Z</time>
      </trkpt>
      <trkpt lat="45.24969" lon="6.16293">
        <ele>2062</ele>
        <time>2022-05-07T05:54:57.174Z</time>
      </trkpt>
      <trkpt lat="45.24975" lon="6.16281">
        <ele>2066</ele>
        <time>2022-05-07T05:55:18.104Z</time>
      </trkpt>
      <trkpt lat="45.24968" lon="6.16273">
        <ele>2069</ele>
        <time>2022-05-07T05:55:38.127Z</time>
      </trkpt>
      <trkpt lat="45.24962" lon="6.16263">
        <ele>2071</ele>
        <time>2022-05-07T05:55:51.129Z</time>
      </trkpt>
      <trkpt lat="45.24966" lon="6.16251">
        <ele>2073</ele>
        <time>2022-05-07T05:56:10.122Z</time>
      </trkpt>
      <trkpt lat="45.24966" lon="6.16238">
        <ele>2077</ele>
        <time>2022-05-07T05:56:25.106Z</time>
      </trkpt>
      <trkpt lat="45.24968" lon="6.16225">
        <ele>2081</ele>
        <time>2022-05-07T05:56:38.135Z</time>
      </trkpt>
      <trkpt lat="45.24968" lon="6.16211">
        <ele>2084</ele>
        <time>2022-05-07T05:56:50.110Z</time>
      </trkpt>
      <trkpt lat="45.24969" lon="6.16197">
        <ele>2088</ele>
        <time>2022-05-07T05:57:02.123Z</time>
      </trkpt>
      <trkpt lat="45.24973" lon="6.16185">
        <ele>2090</ele>
        <time>2022-05-07T05:57:13.104Z</time>
      </trkpt>
      <trkpt lat="45.24975" lon="6.16171">
        <ele>2092</ele>
        <time>2022-05-07T05:57:23.119Z</time>
      </trkpt>
      <trkpt lat="45.24977" lon="6.16159">
        <ele>2093</ele>
        <time>2022-05-07T05:57:35.117Z</time>
      </trkpt>
      <trkpt lat="45.24983" lon="6.16149">
        <ele>2094</ele>
        <time>2022-05-07T05:57:48.121Z</time>
      </trkpt>
      <trkpt lat="45.2499" lon="6.16141">
        <ele>2094</ele>
        <time>2022-05-07T05:57:57.116Z</time>
      </trkpt>
      <trkpt lat="45.24996" lon="6.16131">
        <ele>2093</ele>
        <time>2022-05-07T05:58:07.108Z</time>
      </trkpt>
      <trkpt lat="45.25" lon="6.16119">
        <ele>2093</ele>
        <time>2022-05-07T05:58:18.119Z</time>
      </trkpt>
      <trkpt lat="45.25006" lon="6.16107">
        <ele>2094</ele>
        <time>2022-05-07T05:58:31.115Z</time>
      </trkpt>
      <trkpt lat="45.25011" lon="6.16095">
        <ele>2095</ele>
        <time>2022-05-07T05:58:42.122Z</time>
      </trkpt>
      <trkpt lat="45.25016" lon="6.16084">
        <ele>2096</ele>
        <time>2022-05-07T05:58:54.137Z</time>
      </trkpt>
      <trkpt lat="45.2502" lon="6.16072">
        <ele>2098</ele>
        <time>2022-05-07T05:59:05.131Z</time>
      </trkpt>
      <trkpt lat="45.25025" lon="6.16061">
        <ele>2100</ele>
        <time>2022-05-07T05:59:16.164Z</time>
      </trkpt>
      <trkpt lat="45.25031" lon="6.16051">
        <ele>2101</ele>
        <time>2022-05-07T05:59:26.131Z</time>
      </trkpt>
      <trkpt lat="45.25038" lon="6.1604">
        <ele>2103</ele>
        <time>2022-05-07T05:59:40.110Z</time>
      </trkpt>
      <trkpt lat="45.25046" lon="6.16034">
        <ele>2105</ele>
        <time>2022-05-07T05:59:52.105Z</time>
      </trkpt>
      <trkpt lat="45.25053" lon="6.16026">
        <ele>2107</ele>
        <time>2022-05-07T06:00:05.117Z</time>
      </trkpt>
      <trkpt lat="45.25061" lon="6.16017">
        <ele>2111</ele>
        <time>2022-05-07T06:00:21.147Z</time>
      </trkpt>
      <trkpt lat="45.25061" lon="6.16016">
        <ele>2112</ele>
        <time>2022-05-07T06:00:26.148Z</time>
      </trkpt>
      <trkpt lat="45.25061" lon="6.16016">
        <ele>2112</ele>
        <time>2022-05-07T06:02:13.105Z</time>
      </trkpt>
      <trkpt lat="45.25071" lon="6.15987">
        <ele>2117</ele>
        <time>2022-05-07T06:02:14.111Z</time>
      </trkpt>
      <trkpt lat="45.25072" lon="6.15974">
        <ele>2118</ele>
        <time>2022-05-07T06:02:26.153Z</time>
      </trkpt>
      <trkpt lat="45.25074" lon="6.1596">
        <ele>2121</ele>
        <time>2022-05-07T06:02:38.141Z</time>
      </trkpt>
      <trkpt lat="45.25075" lon="6.15947">
        <ele>2124</ele>
        <time>2022-05-07T06:02:50.140Z</time>
      </trkpt>
      <trkpt lat="45.25078" lon="6.15933">
        <ele>2128</ele>
        <time>2022-05-07T06:03:07.139Z</time>
      </trkpt>
      <trkpt lat="45.25081" lon="6.15921">
        <ele>2130</ele>
        <time>2022-05-07T06:03:18.138Z</time>
      </trkpt>
      <trkpt lat="45.25085" lon="6.15909">
        <ele>2131</ele>
        <time>2022-05-07T06:03:29.140Z</time>
      </trkpt>
      <trkpt lat="45.25083" lon="6.15896">
        <ele>2137</ele>
        <time>2022-05-07T06:04:02.173Z</time>
      </trkpt>
      <trkpt lat="45.25086" lon="6.15883">
        <ele>2141</ele>
        <time>2022-05-07T06:04:20.157Z</time>
      </trkpt>
      <trkpt lat="45.25092" lon="6.15872">
        <ele>2142</ele>
        <time>2022-05-07T06:04:30.164Z</time>
      </trkpt>
      <trkpt lat="45.25096" lon="6.1586">
        <ele>2142</ele>
        <time>2022-05-07T06:04:43.102Z</time>
      </trkpt>
      <trkpt lat="45.25099" lon="6.15848">
        <ele>2142</ele>
        <time>2022-05-07T06:04:57.165Z</time>
      </trkpt>
      <trkpt lat="45.25105" lon="6.15838">
        <ele>2144</ele>
        <time>2022-05-07T06:05:08.147Z</time>
      </trkpt>
      <trkpt lat="45.25111" lon="6.15827">
        <ele>2146</ele>
        <time>2022-05-07T06:05:20.167Z</time>
      </trkpt>
      <trkpt lat="45.25119" lon="6.1582">
        <ele>2148</ele>
        <time>2022-05-07T06:05:39.157Z</time>
      </trkpt>
      <trkpt lat="45.25125" lon="6.15811">
        <ele>2149</ele>
        <time>2022-05-07T06:05:52.165Z</time>
      </trkpt>
      <trkpt lat="45.25131" lon="6.15801">
        <ele>2149</ele>
        <time>2022-05-07T06:06:03.182Z</time>
      </trkpt>
      <trkpt lat="45.25134" lon="6.15788">
        <ele>2151</ele>
        <time>2022-05-07T06:06:15.153Z</time>
      </trkpt>
      <trkpt lat="45.25139" lon="6.15776">
        <ele>2153</ele>
        <time>2022-05-07T06:06:26.201Z</time>
      </trkpt>
      <trkpt lat="45.25143" lon="6.15764">
        <ele>2155</ele>
        <time>2022-05-07T06:06:36.172Z</time>
      </trkpt>
      <trkpt lat="45.25148" lon="6.15752">
        <ele>2156</ele>
        <time>2022-05-07T06:06:45.118Z</time>
      </trkpt>
      <trkpt lat="45.2515" lon="6.1574">
        <ele>2158</ele>
        <time>2022-05-07T06:06:57.178Z</time>
      </trkpt>
      <trkpt lat="45.25153" lon="6.15726">
        <ele>2159</ele>
        <time>2022-05-07T06:07:06.160Z</time>
      </trkpt>
      <trkpt lat="45.25155" lon="6.15719">
        <ele>2162</ele>
        <time>2022-05-07T06:07:23.142Z</time>
      </trkpt>
      <trkpt lat="45.25155" lon="6.15719">
        <ele>2162</ele>
        <time>2022-05-07T06:07:47.166Z</time>
      </trkpt>
      <trkpt lat="45.2516" lon="6.15688">
        <ele>2163</ele>
        <time>2022-05-07T06:07:48.195Z</time>
      </trkpt>
      <trkpt lat="45.25163" lon="6.15675">
        <ele>2164</ele>
        <time>2022-05-07T06:07:56.180Z</time>
      </trkpt>
      <trkpt lat="45.25166" lon="6.15661">
        <ele>2164</ele>
        <time>2022-05-07T06:08:06.099Z</time>
      </trkpt>
      <trkpt lat="45.25168" lon="6.15648">
        <ele>2164</ele>
        <time>2022-05-07T06:08:14.135Z</time>
      </trkpt>
      <trkpt lat="45.25172" lon="6.15634">
        <ele>2165</ele>
        <time>2022-05-07T06:08:23.185Z</time>
      </trkpt>
      <trkpt lat="45.25174" lon="6.15621">
        <ele>2166</ele>
        <time>2022-05-07T06:08:31.173Z</time>
      </trkpt>
      <trkpt lat="45.25174" lon="6.15608">
        <ele>2167</ele>
        <time>2022-05-07T06:08:41.202Z</time>
      </trkpt>
      <trkpt lat="45.25177" lon="6.15595">
        <ele>2169</ele>
        <time>2022-05-07T06:08:51.171Z</time>
      </trkpt>
      <trkpt lat="45.25182" lon="6.15585">
        <ele>2170</ele>
        <time>2022-05-07T06:08:59.115Z</time>
      </trkpt>
      <trkpt lat="45.25186" lon="6.15573">
        <ele>2171</ele>
        <time>2022-05-07T06:09:08.177Z</time>
      </trkpt>
      <trkpt lat="45.25191" lon="6.15561">
        <ele>2172</ele>
        <time>2022-05-07T06:09:18.126Z</time>
      </trkpt>
      <trkpt lat="45.25195" lon="6.15548">
        <ele>2173</ele>
        <time>2022-05-07T06:09:27.153Z</time>
      </trkpt>
      <trkpt lat="45.25199" lon="6.15535">
        <ele>2174</ele>
        <time>2022-05-07T06:09:35.176Z</time>
      </trkpt>
      <trkpt lat="45.25204" lon="6.15522">
        <ele>2174</ele>
        <time>2022-05-07T06:09:44.151Z</time>
      </trkpt>
      <trkpt lat="45.25209" lon="6.15511">
        <ele>2175</ele>
        <time>2022-05-07T06:09:51.153Z</time>
      </trkpt>
      <trkpt lat="45.25214" lon="6.15499">
        <ele>2176</ele>
        <time>2022-05-07T06:10:00.127Z</time>
      </trkpt>
      <trkpt lat="45.25223" lon="6.15495">
        <ele>2178</ele>
        <time>2022-05-07T06:10:11.166Z</time>
      </trkpt>
      <trkpt lat="45.25228" lon="6.15485">
        <ele>2178</ele>
        <time>2022-05-07T06:10:25.161Z</time>
      </trkpt>
      <trkpt lat="45.25232" lon="6.15472">
        <ele>2180</ele>
        <time>2022-05-07T06:10:36.140Z</time>
      </trkpt>
      <trkpt lat="45.25232" lon="6.15474">
        <ele>2181</ele>
        <time>2022-05-07T06:10:49.142Z</time>
      </trkpt>
      <trkpt lat="45.25232" lon="6.15474">
        <ele>2181</ele>
        <time>2022-05-07T06:12:45.138Z</time>
      </trkpt>
      <trkpt lat="45.25236" lon="6.15442">
        <ele>2187</ele>
        <time>2022-05-07T06:12:46.166Z</time>
      </trkpt>
      <trkpt lat="45.25237" lon="6.15429">
        <ele>2186</ele>
        <time>2022-05-07T06:12:57.127Z</time>
      </trkpt>
      <trkpt lat="45.2524" lon="6.15416">
        <ele>2187</ele>
        <time>2022-05-07T06:13:05.152Z</time>
      </trkpt>
      <trkpt lat="45.25244" lon="6.15403">
        <ele>2187</ele>
        <time>2022-05-07T06:13:12.137Z</time>
      </trkpt>
      <trkpt lat="45.25248" lon="6.15391">
        <ele>2187</ele>
        <time>2022-05-07T06:13:18.124Z</time>
      </trkpt>
      <trkpt lat="45.25252" lon="6.15379">
        <ele>2187</ele>
        <time>2022-05-07T06:13:24.170Z</time>
      </trkpt>
      <trkpt lat="45.25256" lon="6.15366">
        <ele>2188</ele>
        <time>2022-05-07T06:13:32.152Z</time>
      </trkpt>
      <trkpt lat="45.2526" lon="6.15353">
        <ele>2187</ele>
        <time>2022-05-07T06:13:41.138Z</time>
      </trkpt>
      <trkpt lat="45.25266" lon="6.15343">
        <ele>2187</ele>
        <time>2022-05-07T06:13:51.162Z</time>
      </trkpt>
      <trkpt lat="45.25271" lon="6.15332">
        <ele>2187</ele>
        <time>2022-05-07T06:13:59.181Z</time>
      </trkpt>
      <trkpt lat="45.25273" lon="6.15318">
        <ele>2187</ele>
        <time>2022-05-07T06:14:07.125Z</time>
      </trkpt>
      <trkpt lat="45.25279" lon="6.15308">
        <ele>2187</ele>
        <time>2022-05-07T06:14:16.145Z</time>
      </trkpt>
      <trkpt lat="45.25281" lon="6.15294">
        <ele>2188</ele>
        <time>2022-05-07T06:14:26.159Z</time>
      </trkpt>
      <trkpt lat="45.25283" lon="6.15282">
        <ele>2190</ele>
        <time>2022-05-07T06:14:36.138Z</time>
      </trkpt>
      <trkpt lat="45.25282" lon="6.15268">
        <ele>2191</ele>
        <time>2022-05-07T06:14:45.123Z</time>
      </trkpt>
      <trkpt lat="45.25279" lon="6.15255">
        <ele>2193</ele>
        <time>2022-05-07T06:14:55.180Z</time>
      </trkpt>
      <trkpt lat="45.25279" lon="6.15241">
        <ele>2195</ele>
        <time>2022-05-07T06:15:04.140Z</time>
      </trkpt>
      <trkpt lat="45.25281" lon="6.15228">
        <ele>2197</ele>
        <time>2022-05-07T06:15:14.125Z</time>
      </trkpt>
      <trkpt lat="45.25284" lon="6.15215">
        <ele>2198</ele>
        <time>2022-05-07T06:15:22.182Z</time>
      </trkpt>
      <trkpt lat="45.25289" lon="6.15202">
        <ele>2199</ele>
        <time>2022-05-07T06:15:32.163Z</time>
      </trkpt>
      <trkpt lat="45.25289" lon="6.15192">
        <ele>2202</ele>
        <time>2022-05-07T06:16:00.164Z</time>
      </trkpt>
      <trkpt lat="45.25289" lon="6.15192">
        <ele>2202</ele>
        <time>2022-05-07T06:16:25.152Z</time>
      </trkpt>
      <trkpt lat="45.25294" lon="6.1516">
        <ele>2205</ele>
        <time>2022-05-07T06:16:26.154Z</time>
      </trkpt>
      <trkpt lat="45.25296" lon="6.15147">
        <ele>2207</ele>
        <time>2022-05-07T06:16:39.150Z</time>
      </trkpt>
      <trkpt lat="45.25298" lon="6.15133">
        <ele>2209</ele>
        <time>2022-05-07T06:16:56.156Z</time>
      </trkpt>
      <trkpt lat="45.25297" lon="6.1512">
        <ele>2211</ele>
        <time>2022-05-07T06:17:08.142Z</time>
      </trkpt>
      <trkpt lat="45.253" lon="6.15107">
        <ele>2212</ele>
        <time>2022-05-07T06:17:20.150Z</time>
      </trkpt>
      <trkpt lat="45.25304" lon="6.15095">
        <ele>2213</ele>
        <time>2022-05-07T06:17:34.126Z</time>
      </trkpt>
      <trkpt lat="45.25301" lon="6.15082">
        <ele>2215</ele>
        <time>2022-05-07T06:17:46.162Z</time>
      </trkpt>
      <trkpt lat="45.25309" lon="6.15075">
        <ele>2219</ele>
        <time>2022-05-07T06:18:07.157Z</time>
      </trkpt>
      <trkpt lat="45.25314" lon="6.15065">
        <ele>2224</ele>
        <time>2022-05-07T06:18:25.152Z</time>
      </trkpt>
      <trkpt lat="45.2532" lon="6.15055">
        <ele>2226</ele>
        <time>2022-05-07T06:18:39.158Z</time>
      </trkpt>
      <trkpt lat="45.25325" lon="6.15044">
        <ele>2226</ele>
        <time>2022-05-07T06:18:55.140Z</time>
      </trkpt>
      <trkpt lat="45.25327" lon="6.15031">
        <ele>2227</ele>
        <time>2022-05-07T06:19:15.155Z</time>
      </trkpt>
      <trkpt lat="45.25336" lon="6.15034">
        <ele>2229</ele>
        <time>2022-05-07T06:19:31.103Z</time>
      </trkpt>
      <trkpt lat="45.25338" lon="6.15021">
        <ele>2232</ele>
        <time>2022-05-07T06:19:48.172Z</time>
      </trkpt>
      <trkpt lat="45.25337" lon="6.15008">
        <ele>2234</ele>
        <time>2022-05-07T06:19:58.160Z</time>
      </trkpt>
      <trkpt lat="45.25335" lon="6.14995">
        <ele>2237</ele>
        <time>2022-05-07T06:20:12.156Z</time>
      </trkpt>
      <trkpt lat="45.25332" lon="6.14982">
        <ele>2241</ele>
        <time>2022-05-07T06:20:28.121Z</time>
      </trkpt>
      <trkpt lat="45.25334" lon="6.14969">
        <ele>2245</ele>
        <time>2022-05-07T06:20:43.135Z</time>
      </trkpt>
      <trkpt lat="45.25335" lon="6.14956">
        <ele>2249</ele>
        <time>2022-05-07T06:20:56.152Z</time>
      </trkpt>
      <trkpt lat="45.25344" lon="6.14954">
        <ele>2252</ele>
        <time>2022-05-07T06:21:12.161Z</time>
      </trkpt>
      <trkpt lat="45.25342" lon="6.14942">
        <ele>2253</ele>
        <time>2022-05-07T06:21:23.139Z</time>
      </trkpt>
      <trkpt lat="45.25338" lon="6.1493">
        <ele>2254</ele>
        <time>2022-05-07T06:21:37.110Z</time>
      </trkpt>
      <trkpt lat="45.25331" lon="6.14921">
        <ele>2255</ele>
        <time>2022-05-07T06:21:53.106Z</time>
      </trkpt>
      <trkpt lat="45.25339" lon="6.14915">
        <ele>2257</ele>
        <time>2022-05-07T06:22:09.141Z</time>
      </trkpt>
      <trkpt lat="45.25343" lon="6.14903">
        <ele>2259</ele>
        <time>2022-05-07T06:22:25.178Z</time>
      </trkpt>
      <trkpt lat="45.25343" lon="6.14902">
        <ele>2259</ele>
        <time>2022-05-07T06:22:36.149Z</time>
      </trkpt>
      <trkpt lat="45.25343" lon="6.14902">
        <ele>2259</ele>
        <time>2022-05-07T06:27:30.106Z</time>
      </trkpt>
      <trkpt lat="45.25352" lon="6.14872">
        <ele>2257</ele>
        <time>2022-05-07T06:27:31.094Z</time>
      </trkpt>
      <trkpt lat="45.25356" lon="6.1486">
        <ele>2256</ele>
        <time>2022-05-07T06:27:43.087Z</time>
      </trkpt>
      <trkpt lat="45.25361" lon="6.1485">
        <ele>2256</ele>
        <time>2022-05-07T06:27:58.105Z</time>
      </trkpt>
      <trkpt lat="45.25362" lon="6.14836">
        <ele>2255</ele>
        <time>2022-05-07T06:28:09.084Z</time>
      </trkpt>
      <trkpt lat="45.25364" lon="6.14823">
        <ele>2254</ele>
        <time>2022-05-07T06:28:20.088Z</time>
      </trkpt>
      <trkpt lat="45.25367" lon="6.14811">
        <ele>2252</ele>
        <time>2022-05-07T06:28:31.090Z</time>
      </trkpt>
      <trkpt lat="45.25373" lon="6.14801">
        <ele>2250</ele>
        <time>2022-05-07T06:28:44.093Z</time>
      </trkpt>
      <trkpt lat="45.2538" lon="6.14791">
        <ele>2247</ele>
        <time>2022-05-07T06:28:55.093Z</time>
      </trkpt>
      <trkpt lat="45.25385" lon="6.1478">
        <ele>2246</ele>
        <time>2022-05-07T06:29:10.074Z</time>
      </trkpt>
      <trkpt lat="45.25393" lon="6.1477">
        <ele>2248</ele>
        <time>2022-05-07T06:29:27.095Z</time>
      </trkpt>
      <trkpt lat="45.254" lon="6.14761">
        <ele>2251</ele>
        <time>2022-05-07T06:29:41.096Z</time>
      </trkpt>
      <trkpt lat="45.25401" lon="6.14759">
        <ele>2256</ele>
        <time>2022-05-07T06:29:56.115Z</time>
      </trkpt>
      <trkpt lat="45.25401" lon="6.14759">
        <ele>2256</ele>
        <time>2022-05-07T06:31:13.095Z</time>
      </trkpt>
      <trkpt lat="45.25421" lon="6.14744">
        <ele>2281</ele>
        <time>2022-05-07T06:31:14.094Z</time>
      </trkpt>
      <trkpt lat="45.2543" lon="6.14739">
        <ele>2285</ele>
        <time>2022-05-07T06:31:25.100Z</time>
      </trkpt>
      <trkpt lat="45.25439" lon="6.14732">
        <ele>2289</ele>
        <time>2022-05-07T06:31:36.104Z</time>
      </trkpt>
      <trkpt lat="45.25447" lon="6.14728">
        <ele>2294</ele>
        <time>2022-05-07T06:31:47.086Z</time>
      </trkpt>
      <trkpt lat="45.25455" lon="6.1472">
        <ele>2298</ele>
        <time>2022-05-07T06:32:00.103Z</time>
      </trkpt>
      <trkpt lat="45.25464" lon="6.14718">
        <ele>2301</ele>
        <time>2022-05-07T06:32:15.091Z</time>
      </trkpt>
      <trkpt lat="45.25471" lon="6.14722">
        <ele>2302</ele>
        <time>2022-05-07T06:32:32.104Z</time>
      </trkpt>
      <trkpt lat="45.25471" lon="6.14722">
        <ele>2302</ele>
        <time>2022-05-07T06:33:19.082Z</time>
      </trkpt>
      <trkpt lat="45.2549" lon="6.14703">
        <ele>2305</ele>
        <time>2022-05-07T06:33:20.098Z</time>
      </trkpt>
      <trkpt lat="45.25494" lon="6.14691">
        <ele>2310</ele>
        <time>2022-05-07T06:33:37.099Z</time>
      </trkpt>
      <trkpt lat="45.25496" lon="6.14678">
        <ele>2316</ele>
        <time>2022-05-07T06:33:56.090Z</time>
      </trkpt>
      <trkpt lat="45.25499" lon="6.14666">
        <ele>2320</ele>
        <time>2022-05-07T06:34:15.106Z</time>
      </trkpt>
      <trkpt lat="45.25508" lon="6.14664">
        <ele>2323</ele>
        <time>2022-05-07T06:34:35.153Z</time>
      </trkpt>
      <trkpt lat="45.25509" lon="6.14666">
        <ele>2323</ele>
        <time>2022-05-07T06:34:39.148Z</time>
      </trkpt>
      <trkpt lat="45.25509" lon="6.14666">
        <ele>2323</ele>
        <time>2022-05-07T06:35:41.156Z</time>
      </trkpt>
      <trkpt lat="45.25518" lon="6.14637">
        <ele>2330</ele>
        <time>2022-05-07T06:35:42.147Z</time>
      </trkpt>
      <trkpt lat="45.25523" lon="6.14625">
        <ele>2332</ele>
        <time>2022-05-07T06:36:07.144Z</time>
      </trkpt>
      <trkpt lat="45.25528" lon="6.14628">
        <ele>2329</ele>
        <time>2022-05-07T06:36:25.159Z</time>
      </trkpt>
      <trkpt lat="45.25528" lon="6.14628">
        <ele>2329</ele>
        <time>2022-05-07T06:37:30.136Z</time>
      </trkpt>
      <trkpt lat="45.2554" lon="6.14601">
        <ele>2342</ele>
        <time>2022-05-07T06:37:31.172Z</time>
      </trkpt>
      <trkpt lat="45.25539" lon="6.14594">
        <ele>2348</ele>
        <time>2022-05-07T06:37:50.174Z</time>
      </trkpt>
      <trkpt lat="45.25539" lon="6.14594">
        <ele>2348</ele>
        <time>2022-05-07T06:39:44.080Z</time>
      </trkpt>
      <trkpt lat="45.25558" lon="6.14575">
        <ele>2356</ele>
        <time>2022-05-07T06:39:45.088Z</time>
      </trkpt>
      <trkpt lat="45.25557" lon="6.14562">
        <ele>2361</ele>
        <time>2022-05-07T06:40:02.085Z</time>
      </trkpt>
      <trkpt lat="45.25552" lon="6.14553">
        <ele>2367</ele>
        <time>2022-05-07T06:40:25.104Z</time>
      </trkpt>
      <trkpt lat="45.25552" lon="6.14553">
        <ele>2367</ele>
        <time>2022-05-07T06:41:06.107Z</time>
      </trkpt>
      <trkpt lat="45.25568" lon="6.14531">
        <ele>2375</ele>
        <time>2022-05-07T06:41:07.099Z</time>
      </trkpt>
      <trkpt lat="45.25573" lon="6.1452">
        <ele>2380</ele>
        <time>2022-05-07T06:41:23.115Z</time>
      </trkpt>
      <trkpt lat="45.25579" lon="6.1451">
        <ele>2383</ele>
        <time>2022-05-07T06:41:39.094Z</time>
      </trkpt>
      <trkpt lat="45.25586" lon="6.14501">
        <ele>2387</ele>
        <time>2022-05-07T06:41:53.100Z</time>
      </trkpt>
      <trkpt lat="45.25591" lon="6.1449">
        <ele>2391</ele>
        <time>2022-05-07T06:42:08.095Z</time>
      </trkpt>
      <trkpt lat="45.25596" lon="6.14478">
        <ele>2394</ele>
        <time>2022-05-07T06:42:20.099Z</time>
      </trkpt>
      <trkpt lat="45.25599" lon="6.14465">
        <ele>2396</ele>
        <time>2022-05-07T06:42:30.090Z</time>
      </trkpt>
      <trkpt lat="45.25601" lon="6.14452">
        <ele>2398</ele>
        <time>2022-05-07T06:42:39.101Z</time>
      </trkpt>
      <trkpt lat="45.25606" lon="6.1444">
        <ele>2399</ele>
        <time>2022-05-07T06:42:48.090Z</time>
      </trkpt>
      <trkpt lat="45.25611" lon="6.14429">
        <ele>2399</ele>
        <time>2022-05-07T06:42:55.099Z</time>
      </trkpt>
      <trkpt lat="45.25615" lon="6.14417">
        <ele>2399</ele>
        <time>2022-05-07T06:43:05.087Z</time>
      </trkpt>
      <trkpt lat="45.25619" lon="6.14405">
        <ele>2398</ele>
        <time>2022-05-07T06:43:17.089Z</time>
      </trkpt>
      <trkpt lat="45.2562" lon="6.14392">
        <ele>2397</ele>
        <time>2022-05-07T06:43:33.114Z</time>
      </trkpt>
      <trkpt lat="45.25621" lon="6.14378">
        <ele>2396</ele>
        <time>2022-05-07T06:43:49.119Z</time>
      </trkpt>
      <trkpt lat="45.25622" lon="6.14369">
        <ele>2395</ele>
        <time>2022-05-07T06:44:08.112Z</time>
      </trkpt>
      <trkpt lat="45.25622" lon="6.14369">
        <ele>2395</ele>
        <time>2022-05-07T06:53:33.153Z</time>
      </trkpt>
      <trkpt lat="45.25622" lon="6.14336">
        <ele>2396</ele>
        <time>2022-05-07T06:53:34.113Z</time>
      </trkpt>
      <trkpt lat="45.25625" lon="6.14323">
        <ele>2401</ele>
        <time>2022-05-07T06:53:51.120Z</time>
      </trkpt>
      <trkpt lat="45.25626" lon="6.14309">
        <ele>2405</ele>
        <time>2022-05-07T06:54:06.178Z</time>
      </trkpt>
      <trkpt lat="45.25627" lon="6.14296">
        <ele>2408</ele>
        <time>2022-05-07T06:54:21.164Z</time>
      </trkpt>
      <trkpt lat="45.25626" lon="6.14283">
        <ele>2409</ele>
        <time>2022-05-07T06:54:38.157Z</time>
      </trkpt>
      <trkpt lat="45.25627" lon="6.1427">
        <ele>2410</ele>
        <time>2022-05-07T06:54:53.195Z</time>
      </trkpt>
      <trkpt lat="45.25618" lon="6.14268">
        <ele>2410</ele>
        <time>2022-05-07T06:55:09.190Z</time>
      </trkpt>
      <trkpt lat="45.25609" lon="6.14265">
        <ele>2408</ele>
        <time>2022-05-07T06:55:24.178Z</time>
      </trkpt>
      <trkpt lat="45.256" lon="6.14262">
        <ele>2404</ele>
        <time>2022-05-07T06:55:39.185Z</time>
      </trkpt>
      <trkpt lat="45.25605" lon="6.14251">
        <ele>2401</ele>
        <time>2022-05-07T06:55:56.173Z</time>
      </trkpt>
      <trkpt lat="45.2561" lon="6.1424">
        <ele>2406</ele>
        <time>2022-05-07T06:56:17.197Z</time>
      </trkpt>
      <trkpt lat="45.25613" lon="6.14238">
        <ele>2414</ele>
        <time>2022-05-07T06:56:34.185Z</time>
      </trkpt>
      <trkpt lat="45.25613" lon="6.14238">
        <ele>2414</ele>
        <time>2022-05-07T06:58:18.104Z</time>
      </trkpt>
      <trkpt lat="45.25604" lon="6.14208">
        <ele>2434</ele>
        <time>2022-05-07T06:58:19.124Z</time>
      </trkpt>
      <trkpt lat="45.25597" lon="6.14198">
        <ele>2437</ele>
        <time>2022-05-07T06:58:35.137Z</time>
      </trkpt>
      <trkpt lat="45.25594" lon="6.14195">
        <ele>2441</ele>
        <time>2022-05-07T06:58:54.115Z</time>
      </trkpt>
      <trkpt lat="45.25594" lon="6.14195">
        <ele>2441</ele>
        <time>2022-05-07T07:00:25.112Z</time>
      </trkpt>
      <trkpt lat="45.2559" lon="6.14163">
        <ele>2455</ele>
        <time>2022-05-07T07:00:26.099Z</time>
      </trkpt>
      <trkpt lat="45.25595" lon="6.14152">
        <ele>2462</ele>
        <time>2022-05-07T07:00:53.119Z</time>
      </trkpt>
      <trkpt lat="45.25601" lon="6.14147">
        <ele>2465</ele>
        <time>2022-05-07T07:01:19.094Z</time>
      </trkpt>
      <trkpt lat="45.25601" lon="6.14147">
        <ele>2465</ele>
        <time>2022-05-07T07:02:16.112Z</time>
      </trkpt>
      <trkpt lat="45.25583" lon="6.14124">
        <ele>2471</ele>
        <time>2022-05-07T07:02:17.112Z</time>
      </trkpt>
      <trkpt lat="45.25581" lon="6.14111">
        <ele>2473</ele>
        <time>2022-05-07T07:02:32.107Z</time>
      </trkpt>
      <trkpt lat="45.25582" lon="6.14098">
        <ele>2476</ele>
        <time>2022-05-07T07:02:53.123Z</time>
      </trkpt>
      <trkpt lat="45.25588" lon="6.14095">
        <ele>2480</ele>
        <time>2022-05-07T07:03:19.096Z</time>
      </trkpt>
      <trkpt lat="45.25588" lon="6.14095">
        <ele>2480</ele>
        <time>2022-05-07T07:04:31.141Z</time>
      </trkpt>
      <trkpt lat="45.25574" lon="6.14069">
        <ele>2489</ele>
        <time>2022-05-07T07:04:32.144Z</time>
      </trkpt>
      <trkpt lat="45.25573" lon="6.14068">
        <ele>2491</ele>
        <time>2022-05-07T07:04:44.118Z</time>
      </trkpt>
      <trkpt lat="45.25573" lon="6.14068">
        <ele>2491</ele>
        <time>2022-05-07T07:05:48.156Z</time>
      </trkpt>
      <trkpt lat="45.25568" lon="6.14036">
        <ele>2496</ele>
        <time>2022-05-07T07:05:49.161Z</time>
      </trkpt>
      <trkpt lat="45.25567" lon="6.14024">
        <ele>2500</ele>
        <time>2022-05-07T07:06:08.119Z</time>
      </trkpt>
      <trkpt lat="45.25571" lon="6.14017">
        <ele>2502</ele>
        <time>2022-05-07T07:06:24.106Z</time>
      </trkpt>
      <trkpt lat="45.25571" lon="6.14017">
        <ele>2502</ele>
        <time>2022-05-07T07:07:07.107Z</time>
      </trkpt>
      <trkpt lat="45.25565" lon="6.13985">
        <ele>2508</ele>
        <time>2022-05-07T07:07:08.099Z</time>
      </trkpt>
      <trkpt lat="45.25561" lon="6.13971">
        <ele>2513</ele>
        <time>2022-05-07T07:07:30.110Z</time>
      </trkpt>
      <trkpt lat="45.25559" lon="6.13958">
        <ele>2516</ele>
        <time>2022-05-07T07:07:48.107Z</time>
      </trkpt>
      <trkpt lat="45.25557" lon="6.13944">
        <ele>2520</ele>
        <time>2022-05-07T07:08:08.109Z</time>
      </trkpt>
      <trkpt lat="45.25557" lon="6.13931">
        <ele>2521</ele>
        <time>2022-05-07T07:08:23.111Z</time>
      </trkpt>
      <trkpt lat="45.25558" lon="6.13927">
        <ele>2522</ele>
        <time>2022-05-07T07:08:37.125Z</time>
      </trkpt>
      <trkpt lat="45.25558" lon="6.13927">
        <ele>2522</ele>
        <time>2022-05-07T07:14:40.118Z</time>
      </trkpt>
      <trkpt lat="45.25546" lon="6.139">
        <ele>2528</ele>
        <time>2022-05-07T07:14:41.110Z</time>
      </trkpt>
      <trkpt lat="45.25539" lon="6.13891">
        <ele>2531</ele>
        <time>2022-05-07T07:15:02.119Z</time>
      </trkpt>
      <trkpt lat="45.25538" lon="6.13877">
        <ele>2535</ele>
        <time>2022-05-07T07:15:29.130Z</time>
      </trkpt>
      <trkpt lat="45.25546" lon="6.1387">
        <ele>2535</ele>
        <time>2022-05-07T07:15:49.145Z</time>
      </trkpt>
      <trkpt lat="45.25549" lon="6.13868">
        <ele>2534</ele>
        <time>2022-05-07T07:16:05.146Z</time>
      </trkpt>
      <trkpt lat="45.25549" lon="6.13868">
        <ele>2534</ele>
        <time>2022-05-07T07:18:10.171Z</time>
      </trkpt>
      <trkpt lat="45.2555" lon="6.13836">
        <ele>2553</ele>
        <time>2022-05-07T07:18:11.153Z</time>
      </trkpt>
      <trkpt lat="45.25559" lon="6.13835">
        <ele>2558</ele>
        <time>2022-05-07T07:18:37.166Z</time>
      </trkpt>
      <trkpt lat="45.25559" lon="6.13835">
        <ele>2558</ele>
        <time>2022-05-07T07:19:46.145Z</time>
      </trkpt>
      <trkpt lat="45.25542" lon="6.13813">
        <ele>2566</ele>
        <time>2022-05-07T07:19:47.123Z</time>
      </trkpt>
      <trkpt lat="45.25537" lon="6.13815">
        <ele>2569</ele>
        <time>2022-05-07T07:20:04.161Z</time>
      </trkpt>
      <trkpt lat="45.25537" lon="6.13815">
        <ele>2569</ele>
        <time>2022-05-07T07:23:22.124Z</time>
      </trkpt>
      <trkpt lat="45.25531" lon="6.13783">
        <ele>2589</ele>
        <time>2022-05-07T07:23:23.126Z</time>
      </trkpt>
      <trkpt lat="45.25522" lon="6.13783">
        <ele>2592</ele>
        <time>2022-05-07T07:23:46.117Z</time>
      </trkpt>
      <trkpt lat="45.25521" lon="6.13785">
        <ele>2594</ele>
        <time>2022-05-07T07:23:56.142Z</time>
      </trkpt>
      <trkpt lat="45.25521" lon="6.13785">
        <ele>2594</ele>
        <time>2022-05-07T07:25:50.125Z</time>
      </trkpt>
      <trkpt lat="45.25512" lon="6.13755">
        <ele>2611</ele>
        <time>2022-05-07T07:25:51.120Z</time>
      </trkpt>
      <trkpt lat="45.25518" lon="6.13745">
        <ele>2614</ele>
        <time>2022-05-07T07:26:06.145Z</time>
      </trkpt>
      <trkpt lat="45.25524" lon="6.1374">
        <ele>2615</ele>
        <time>2022-05-07T07:26:26.145Z</time>
      </trkpt>
      <trkpt lat="45.25524" lon="6.1374">
        <ele>2615</ele>
        <time>2022-05-07T07:32:08.111Z</time>
      </trkpt>
      <trkpt lat="45.25501" lon="6.13745">
        <ele>2618</ele>
        <time>2022-05-07T07:32:09.086Z</time>
      </trkpt>
      <trkpt lat="45.25492" lon="6.13746">
        <ele>2620</ele>
        <time>2022-05-07T07:32:30.161Z</time>
      </trkpt>
      <trkpt lat="45.25487" lon="6.13744">
        <ele>2622</ele>
        <time>2022-05-07T07:32:43.130Z</time>
      </trkpt>
      <trkpt lat="45.25487" lon="6.13744">
        <ele>2622</ele>
        <time>2022-05-07T07:33:36.112Z</time>
      </trkpt>
      <trkpt lat="45.25463" lon="6.1374">
        <ele>2626</ele>
        <time>2022-05-07T07:33:37.094Z</time>
      </trkpt>
      <trkpt lat="45.25454" lon="6.13742">
        <ele>2629</ele>
        <time>2022-05-07T07:33:58.102Z</time>
      </trkpt>
      <trkpt lat="45.25445" lon="6.13744">
        <ele>2632</ele>
        <time>2022-05-07T07:34:21.111Z</time>
      </trkpt>
      <trkpt lat="45.25435" lon="6.1375">
        <ele>2637</ele>
        <time>2022-05-07T07:34:46.118Z</time>
      </trkpt>
      <trkpt lat="45.25435" lon="6.13751">
        <ele>2637</ele>
        <time>2022-05-07T07:34:48.113Z</time>
      </trkpt>
      <trkpt lat="45.25435" lon="6.13751">
        <ele>2637</ele>
        <time>2022-05-07T07:35:35.128Z</time>
      </trkpt>
      <trkpt lat="45.25413" lon="6.13757">
        <ele>2646</ele>
        <time>2022-05-07T07:35:36.114Z</time>
      </trkpt>
      <trkpt lat="45.25403" lon="6.13759">
        <ele>2645</ele>
        <time>2022-05-07T07:35:59.157Z</time>
      </trkpt>
      <trkpt lat="45.25395" lon="6.13755">
        <ele>2646</ele>
        <time>2022-05-07T07:36:19.150Z</time>
      </trkpt>
      <trkpt lat="45.25386" lon="6.13752">
        <ele>2646</ele>
        <time>2022-05-07T07:36:42.143Z</time>
      </trkpt>
      <trkpt lat="45.25377" lon="6.13745">
        <ele>2646</ele>
        <time>2022-05-07T07:37:03.142Z</time>
      </trkpt>
      <trkpt lat="45.25375" lon="6.13744">
        <ele>2646</ele>
        <time>2022-05-07T07:37:10.165Z</time>
      </trkpt>
      <trkpt lat="45.25375" lon="6.13744">
        <ele>2646</ele>
        <time>2022-05-07T07:37:52.109Z</time>
      </trkpt>
      <trkpt lat="45.25358" lon="6.13721">
        <ele>2650</ele>
        <time>2022-05-07T07:37:53.112Z</time>
      </trkpt>
      <trkpt lat="45.25357" lon="6.13719">
        <ele>2651</ele>
        <time>2022-05-07T07:38:07.135Z</time>
      </trkpt>
      <trkpt lat="45.25357" lon="6.13719">
        <ele>2651</ele>
        <time>2022-05-07T07:40:20.138Z</time>
      </trkpt>
      <trkpt lat="45.2537" lon="6.13693">
        <ele>2666</ele>
        <time>2022-05-07T07:40:21.101Z</time>
      </trkpt>
      <trkpt lat="45.25372" lon="6.1368">
        <ele>2670</ele>
        <time>2022-05-07T07:40:36.124Z</time>
      </trkpt>
      <trkpt lat="45.25374" lon="6.13667">
        <ele>2674</ele>
        <time>2022-05-07T07:40:59.147Z</time>
      </trkpt>
      <trkpt lat="45.25376" lon="6.1366">
        <ele>2677</ele>
        <time>2022-05-07T07:41:20.112Z</time>
      </trkpt>
      <trkpt lat="45.25376" lon="6.1366">
        <ele>2677</ele>
        <time>2022-05-07T07:43:37.128Z</time>
      </trkpt>
      <trkpt lat="45.25355" lon="6.1365">
        <ele>2685</ele>
        <time>2022-05-07T07:43:38.126Z</time>
      </trkpt>
      <trkpt lat="45.25351" lon="6.13637">
        <ele>2684</ele>
        <time>2022-05-07T07:43:55.128Z</time>
      </trkpt>
      <trkpt lat="45.25349" lon="6.13631">
        <ele>2682</ele>
        <time>2022-05-07T07:44:15.120Z</time>
      </trkpt>
      <trkpt lat="45.25349" lon="6.13631">
        <ele>2682</ele>
        <time>2022-05-07T07:45:11.171Z</time>
      </trkpt>
      <trkpt lat="45.25348" lon="6.13599">
        <ele>2689</ele>
        <time>2022-05-07T07:45:12.140Z</time>
      </trkpt>
      <trkpt lat="45.25343" lon="6.13587">
        <ele>2689</ele>
        <time>2022-05-07T07:45:24.195Z</time>
      </trkpt>
      <trkpt lat="45.25336" lon="6.13578">
        <ele>2690</ele>
        <time>2022-05-07T07:45:38.153Z</time>
      </trkpt>
      <trkpt lat="45.25333" lon="6.13573">
        <ele>2691</ele>
        <time>2022-05-07T07:45:55.180Z</time>
      </trkpt>
      <trkpt lat="45.25333" lon="6.13573">
        <ele>2691</ele>
        <time>2022-05-07T07:57:06.166Z</time>
      </trkpt>
      <trkpt lat="45.25313" lon="6.13557">
        <ele>2701</ele>
        <time>2022-05-07T07:57:07.171Z</time>
      </trkpt>
      <trkpt lat="45.25311" lon="6.13544">
        <ele>2698</ele>
        <time>2022-05-07T07:57:19.109Z</time>
      </trkpt>
      <trkpt lat="45.25308" lon="6.13544">
        <ele>2695</ele>
        <time>2022-05-07T07:57:35.131Z</time>
      </trkpt>
      <trkpt lat="45.25308" lon="6.13544">
        <ele>2695</ele>
        <time>2022-05-07T07:58:11.158Z</time>
      </trkpt>
      <trkpt lat="45.25287" lon="6.13519">
        <ele>2688</ele>
        <time>2022-05-07T07:58:12.096Z</time>
      </trkpt>
      <trkpt lat="45.25281" lon="6.13506">
        <ele>2688</ele>
        <time>2022-05-07T07:58:15.156Z</time>
      </trkpt>
      <trkpt lat="45.25274" lon="6.13495">
        <ele>2687</ele>
        <time>2022-05-07T07:58:19.138Z</time>
      </trkpt>
      <trkpt lat="45.25267" lon="6.1348">
        <ele>2686</ele>
        <time>2022-05-07T07:58:23.164Z</time>
      </trkpt>
      <trkpt lat="45.25262" lon="6.13465">
        <ele>2685</ele>
        <time>2022-05-07T07:58:26.141Z</time>
      </trkpt>
      <trkpt lat="45.25261" lon="6.13451">
        <ele>2682</ele>
        <time>2022-05-07T07:58:34.189Z</time>
      </trkpt>
      <trkpt lat="45.25261" lon="6.13451">
        <ele>2677</ele>
        <time>2022-05-07T07:58:45.146Z</time>
      </trkpt>
      <trkpt lat="45.25261" lon="6.13451">
        <ele>2677</ele>
        <time>2022-05-07T07:59:03.148Z</time>
      </trkpt>
      <trkpt lat="45.25239" lon="6.13461">
        <ele>2669</ele>
        <time>2022-05-07T07:59:04.113Z</time>
      </trkpt>
      <trkpt lat="45.25233" lon="6.1345">
        <ele>2667</ele>
        <time>2022-05-07T07:59:07.154Z</time>
      </trkpt>
      <trkpt lat="45.25233" lon="6.13453">
        <ele>2655</ele>
        <time>2022-05-07T07:59:32.170Z</time>
      </trkpt>
      <trkpt lat="45.25233" lon="6.13453">
        <ele>2655</ele>
        <time>2022-05-07T07:59:52.110Z</time>
      </trkpt>
      <trkpt lat="45.25212" lon="6.13439">
        <ele>2646</ele>
        <time>2022-05-07T07:59:53.187Z</time>
      </trkpt>
      <trkpt lat="45.25207" lon="6.13427">
        <ele>2645</ele>
        <time>2022-05-07T07:59:57.154Z</time>
      </trkpt>
      <trkpt lat="45.25197" lon="6.13415">
        <ele>2644</ele>
        <time>2022-05-07T08:00:00.154Z</time>
      </trkpt>
      <trkpt lat="45.25186" lon="6.13406">
        <ele>2643</ele>
        <time>2022-05-07T08:00:04.146Z</time>
      </trkpt>
      <trkpt lat="45.25174" lon="6.1341">
        <ele>2642</ele>
        <time>2022-05-07T08:00:07.155Z</time>
      </trkpt>
      <trkpt lat="45.25162" lon="6.13423">
        <ele>2641</ele>
        <time>2022-05-07T08:00:09.088Z</time>
      </trkpt>
      <trkpt lat="45.25145" lon="6.13443">
        <ele>2640</ele>
        <time>2022-05-07T08:00:12.174Z</time>
      </trkpt>
      <trkpt lat="45.25127" lon="6.13466">
        <ele>2638</ele>
        <time>2022-05-07T08:00:15.129Z</time>
      </trkpt>
      <trkpt lat="45.25107" lon="6.13506">
        <ele>2635</ele>
        <time>2022-05-07T08:00:21.197Z</time>
      </trkpt>
      <trkpt lat="45.25106" lon="6.1351">
        <ele>2622</ele>
        <time>2022-05-07T08:00:37.172Z</time>
      </trkpt>
      <trkpt lat="45.25106" lon="6.1351">
        <ele>2622</ele>
        <time>2022-05-07T08:05:29.091Z</time>
      </trkpt>
      <trkpt lat="45.25123" lon="6.13533">
        <ele>2592</ele>
        <time>2022-05-07T08:05:30.107Z</time>
      </trkpt>
      <trkpt lat="45.25126" lon="6.13551">
        <ele>2592</ele>
        <time>2022-05-07T08:05:33.117Z</time>
      </trkpt>
      <trkpt lat="45.25128" lon="6.13572">
        <ele>2592</ele>
        <time>2022-05-07T08:05:36.113Z</time>
      </trkpt>
      <trkpt lat="45.25124" lon="6.136">
        <ele>2591</ele>
        <time>2022-05-07T08:05:39.087Z</time>
      </trkpt>
      <trkpt lat="45.25118" lon="6.13636">
        <ele>2590</ele>
        <time>2022-05-07T08:05:44.101Z</time>
      </trkpt>
      <trkpt lat="45.2511" lon="6.13674">
        <ele>2589</ele>
        <time>2022-05-07T08:05:48.115Z</time>
      </trkpt>
      <trkpt lat="45.25106" lon="6.13713">
        <ele>2586</ele>
        <time>2022-05-07T08:05:53.113Z</time>
      </trkpt>
      <trkpt lat="45.25104" lon="6.13718">
        <ele>2578</ele>
        <time>2022-05-07T08:06:08.104Z</time>
      </trkpt>
      <trkpt lat="45.25104" lon="6.13718">
        <ele>2578</ele>
        <time>2022-05-07T08:07:18.132Z</time>
      </trkpt>
      <trkpt lat="45.25085" lon="6.13738">
        <ele>2566</ele>
        <time>2022-05-07T08:07:19.129Z</time>
      </trkpt>
      <trkpt lat="45.25073" lon="6.13747">
        <ele>2565</ele>
        <time>2022-05-07T08:07:21.131Z</time>
      </trkpt>
      <trkpt lat="45.25059" lon="6.13759">
        <ele>2565</ele>
        <time>2022-05-07T08:07:23.117Z</time>
      </trkpt>
      <trkpt lat="45.2504" lon="6.13785">
        <ele>2564</ele>
        <time>2022-05-07T08:07:26.107Z</time>
      </trkpt>
      <trkpt lat="45.25023" lon="6.1383">
        <ele>2560</ele>
        <time>2022-05-07T08:07:32.125Z</time>
      </trkpt>
      <trkpt lat="45.25023" lon="6.13839">
        <ele>2549</ele>
        <time>2022-05-07T08:07:49.138Z</time>
      </trkpt>
      <trkpt lat="45.25023" lon="6.13839">
        <ele>2549</ele>
        <time>2022-05-07T08:15:40.110Z</time>
      </trkpt>
      <trkpt lat="45.25" lon="6.13841">
        <ele>2526</ele>
        <time>2022-05-07T08:15:41.125Z</time>
      </trkpt>
      <trkpt lat="45.24991" lon="6.13838">
        <ele>2524</ele>
        <time>2022-05-07T08:15:53.150Z</time>
      </trkpt>
      <trkpt lat="45.24989" lon="6.13837">
        <ele>2521</ele>
        <time>2022-05-07T08:16:08.149Z</time>
      </trkpt>
      <trkpt lat="45.24989" lon="6.13837">
        <ele>2521</ele>
        <time>2022-05-07T08:17:48.129Z</time>
      </trkpt>
      <trkpt lat="45.24967" lon="6.13824">
        <ele>2520</ele>
        <time>2022-05-07T08:17:49.110Z</time>
      </trkpt>
      <trkpt lat="45.24959" lon="6.1382">
        <ele>2520</ele>
        <time>2022-05-07T08:18:04.115Z</time>
      </trkpt>
      <trkpt lat="45.24953" lon="6.13809">
        <ele>2523</ele>
        <time>2022-05-07T08:18:20.139Z</time>
      </trkpt>
      <trkpt lat="45.2495" lon="6.13796">
        <ele>2528</ele>
        <time>2022-05-07T08:18:32.171Z</time>
      </trkpt>
      <trkpt lat="45.24952" lon="6.13783">
        <ele>2538</ele>
        <time>2022-05-07T08:18:55.124Z</time>
      </trkpt>
      <trkpt lat="45.24943" lon="6.13779">
        <ele>2544</ele>
        <time>2022-05-07T08:19:12.141Z</time>
      </trkpt>
      <trkpt lat="45.24935" lon="6.13775">
        <ele>2546</ele>
        <time>2022-05-07T08:19:29.113Z</time>
      </trkpt>
      <trkpt lat="45.24928" lon="6.13778">
        <ele>2544</ele>
        <time>2022-05-07T08:19:47.104Z</time>
      </trkpt>
      <trkpt lat="45.24928" lon="6.13778">
        <ele>2544</ele>
        <time>2022-05-07T08:20:30.148Z</time>
      </trkpt>
      <trkpt lat="45.24928" lon="6.13747">
        <ele>2554</ele>
        <time>2022-05-07T08:20:31.117Z</time>
      </trkpt>
      <trkpt lat="45.24927" lon="6.13733">
        <ele>2561</ele>
        <time>2022-05-07T08:20:50.117Z</time>
      </trkpt>
      <trkpt lat="45.24919" lon="6.13735">
        <ele>2563</ele>
        <time>2022-05-07T08:21:09.122Z</time>
      </trkpt>
      <trkpt lat="45.24919" lon="6.13735">
        <ele>2563</ele>
        <time>2022-05-07T08:22:30.135Z</time>
      </trkpt>
      <trkpt lat="45.24898" lon="6.13724">
        <ele>2572</ele>
        <time>2022-05-07T08:22:31.119Z</time>
      </trkpt>
      <trkpt lat="45.24895" lon="6.13724">
        <ele>2572</ele>
        <time>2022-05-07T08:22:38.114Z</time>
      </trkpt>
      <trkpt lat="45.24895" lon="6.13724">
        <ele>2572</ele>
        <time>2022-05-07T08:23:14.137Z</time>
      </trkpt>
      <trkpt lat="45.2489" lon="6.13693">
        <ele>2581</ele>
        <time>2022-05-07T08:23:15.105Z</time>
      </trkpt>
      <trkpt lat="45.2489" lon="6.1368">
        <ele>2586</ele>
        <time>2022-05-07T08:23:28.163Z</time>
      </trkpt>
      <trkpt lat="45.24889" lon="6.13667">
        <ele>2591</ele>
        <time>2022-05-07T08:23:42.140Z</time>
      </trkpt>
      <trkpt lat="45.24894" lon="6.13655">
        <ele>2596</ele>
        <time>2022-05-07T08:24:02.154Z</time>
      </trkpt>
      <trkpt lat="45.24892" lon="6.13641">
        <ele>2598</ele>
        <time>2022-05-07T08:24:19.125Z</time>
      </trkpt>
      <trkpt lat="45.24891" lon="6.13639">
        <ele>2599</ele>
        <time>2022-05-07T08:24:35.117Z</time>
      </trkpt>
      <trkpt lat="45.24891" lon="6.13639">
        <ele>2599</ele>
        <time>2022-05-07T08:25:41.165Z</time>
      </trkpt>
      <trkpt lat="45.24874" lon="6.13617">
        <ele>2597</ele>
        <time>2022-05-07T08:25:42.168Z</time>
      </trkpt>
      <trkpt lat="45.24873" lon="6.13614">
        <ele>2599</ele>
        <time>2022-05-07T08:25:58.149Z</time>
      </trkpt>
      <trkpt lat="45.24873" lon="6.13614">
        <ele>2599</ele>
        <time>2022-05-07T08:27:07.140Z</time>
      </trkpt>
      <trkpt lat="45.24871" lon="6.13582">
        <ele>2607</ele>
        <time>2022-05-07T08:27:08.120Z</time>
      </trkpt>
      <trkpt lat="45.24868" lon="6.13569">
        <ele>2609</ele>
        <time>2022-05-07T08:27:23.105Z</time>
      </trkpt>
      <trkpt lat="45.2486" lon="6.13561">
        <ele>2609</ele>
        <time>2022-05-07T08:27:35.119Z</time>
      </trkpt>
      <trkpt lat="45.24852" lon="6.13554">
        <ele>2609</ele>
        <time>2022-05-07T08:27:47.108Z</time>
      </trkpt>
      <trkpt lat="45.24843" lon="6.1355">
        <ele>2610</ele>
        <time>2022-05-07T08:27:57.111Z</time>
      </trkpt>
      <trkpt lat="45.24835" lon="6.13546">
        <ele>2610</ele>
        <time>2022-05-07T08:28:11.143Z</time>
      </trkpt>
      <trkpt lat="45.2483" lon="6.13534">
        <ele>2611</ele>
        <time>2022-05-07T08:28:22.152Z</time>
      </trkpt>
      <trkpt lat="45.24824" lon="6.13523">
        <ele>2612</ele>
        <time>2022-05-07T08:28:33.130Z</time>
      </trkpt>
      <trkpt lat="45.24818" lon="6.13513">
        <ele>2613</ele>
        <time>2022-05-07T08:28:47.157Z</time>
      </trkpt>
      <trkpt lat="45.24811" lon="6.13505">
        <ele>2615</ele>
        <time>2022-05-07T08:29:01.141Z</time>
      </trkpt>
      <trkpt lat="45.24805" lon="6.13495">
        <ele>2617</ele>
        <time>2022-05-07T08:29:12.156Z</time>
      </trkpt>
      <trkpt lat="45.248" lon="6.13483">
        <ele>2620</ele>
        <time>2022-05-07T08:29:27.143Z</time>
      </trkpt>
      <trkpt lat="45.24796" lon="6.13472">
        <ele>2623</ele>
        <time>2022-05-07T08:29:55.150Z</time>
      </trkpt>
      <trkpt lat="45.24796" lon="6.13472">
        <ele>2623</ele>
        <time>2022-05-07T08:30:55.146Z</time>
      </trkpt>
      <trkpt lat="45.24785" lon="6.13444">
        <ele>2625</ele>
        <time>2022-05-07T08:30:56.126Z</time>
      </trkpt>
      <trkpt lat="45.24783" lon="6.13431">
        <ele>2626</ele>
        <time>2022-05-07T08:31:11.084Z</time>
      </trkpt>
      <trkpt lat="45.24778" lon="6.13421">
        <ele>2626</ele>
        <time>2022-05-07T08:31:25.115Z</time>
      </trkpt>
      <trkpt lat="45.24774" lon="6.13409">
        <ele>2628</ele>
        <time>2022-05-07T08:31:38.130Z</time>
      </trkpt>
      <trkpt lat="45.24771" lon="6.13397">
        <ele>2630</ele>
        <time>2022-05-07T08:31:52.120Z</time>
      </trkpt>
      <trkpt lat="45.24766" lon="6.13386">
        <ele>2632</ele>
        <time>2022-05-07T08:32:07.099Z</time>
      </trkpt>
      <trkpt lat="45.24762" lon="6.1338">
        <ele>2636</ele>
        <time>2022-05-07T08:32:22.110Z</time>
      </trkpt>
      <trkpt lat="45.24762" lon="6.1338">
        <ele>2636</ele>
        <time>2022-05-07T08:33:07.107Z</time>
      </trkpt>
      <trkpt lat="45.24745" lon="6.13359">
        <ele>2642</ele>
        <time>2022-05-07T08:33:08.106Z</time>
      </trkpt>
      <trkpt lat="45.2474" lon="6.13348">
        <ele>2645</ele>
        <time>2022-05-07T08:33:30.092Z</time>
      </trkpt>
      <trkpt lat="45.24735" lon="6.13337">
        <ele>2647</ele>
        <time>2022-05-07T08:33:44.097Z</time>
      </trkpt>
      <trkpt lat="45.24733" lon="6.13324">
        <ele>2650</ele>
        <time>2022-05-07T08:34:00.101Z</time>
      </trkpt>
      <trkpt lat="45.24736" lon="6.13312">
        <ele>2654</ele>
        <time>2022-05-07T08:34:17.076Z</time>
      </trkpt>
      <trkpt lat="45.24731" lon="6.13301">
        <ele>2660</ele>
        <time>2022-05-07T08:34:42.091Z</time>
      </trkpt>
      <trkpt lat="45.24729" lon="6.13302">
        <ele>2661</ele>
        <time>2022-05-07T08:34:50.100Z</time>
      </trkpt>
      <trkpt lat="45.24729" lon="6.13302">
        <ele>2661</ele>
        <time>2022-05-07T08:36:01.081Z</time>
      </trkpt>
      <trkpt lat="45.24728" lon="6.1327">
        <ele>2672</ele>
        <time>2022-05-07T08:36:02.094Z</time>
      </trkpt>
      <trkpt lat="45.24729" lon="6.13257">
        <ele>2674</ele>
        <time>2022-05-07T08:36:18.113Z</time>
      </trkpt>
      <trkpt lat="45.24721" lon="6.13252">
        <ele>2676</ele>
        <time>2022-05-07T08:36:35.116Z</time>
      </trkpt>
      <trkpt lat="45.24716" lon="6.13241">
        <ele>2677</ele>
        <time>2022-05-07T08:36:56.117Z</time>
      </trkpt>
      <trkpt lat="45.24715" lon="6.13228">
        <ele>2680</ele>
        <time>2022-05-07T08:37:10.122Z</time>
      </trkpt>
      <trkpt lat="45.24714" lon="6.13214">
        <ele>2685</ele>
        <time>2022-05-07T08:37:30.127Z</time>
      </trkpt>
      <trkpt lat="45.24714" lon="6.13214">
        <ele>2687</ele>
        <time>2022-05-07T08:37:40.130Z</time>
      </trkpt>
      <trkpt lat="45.24714" lon="6.13214">
        <ele>2687</ele>
        <time>2022-05-07T08:38:28.097Z</time>
      </trkpt>
      <trkpt lat="45.24708" lon="6.13183">
        <ele>2693</ele>
        <time>2022-05-07T08:38:29.101Z</time>
      </trkpt>
      <trkpt lat="45.24709" lon="6.1317">
        <ele>2696</ele>
        <time>2022-05-07T08:38:47.119Z</time>
      </trkpt>
      <trkpt lat="45.2471" lon="6.13156">
        <ele>2698</ele>
        <time>2022-05-07T08:39:04.128Z</time>
      </trkpt>
      <trkpt lat="45.24712" lon="6.13143">
        <ele>2698</ele>
        <time>2022-05-07T08:39:21.131Z</time>
      </trkpt>
      <trkpt lat="45.24714" lon="6.13131">
        <ele>2701</ele>
        <time>2022-05-07T08:39:38.124Z</time>
      </trkpt>
      <trkpt lat="45.24716" lon="6.13118">
        <ele>2705</ele>
        <time>2022-05-07T08:39:58.115Z</time>
      </trkpt>
      <trkpt lat="45.24713" lon="6.13118">
        <ele>2708</ele>
        <time>2022-05-07T08:40:18.120Z</time>
      </trkpt>
      <trkpt lat="45.24713" lon="6.13118">
        <ele>2708</ele>
        <time>2022-05-07T08:41:33.127Z</time>
      </trkpt>
      <trkpt lat="45.247" lon="6.13092">
        <ele>2724</ele>
        <time>2022-05-07T08:41:34.109Z</time>
      </trkpt>
      <trkpt lat="45.24699" lon="6.13078">
        <ele>2727</ele>
        <time>2022-05-07T08:42:05.114Z</time>
      </trkpt>
      <trkpt lat="45.24704" lon="6.13067">
        <ele>2731</ele>
        <time>2022-05-07T08:42:24.131Z</time>
      </trkpt>
      <trkpt lat="45.24707" lon="6.13054">
        <ele>2735</ele>
        <time>2022-05-07T08:42:45.131Z</time>
      </trkpt>
      <trkpt lat="45.24707" lon="6.13042">
        <ele>2737</ele>
        <time>2022-05-07T08:43:02.137Z</time>
      </trkpt>
      <trkpt lat="45.24701" lon="6.1303">
        <ele>2738</ele>
        <time>2022-05-07T08:43:13.118Z</time>
      </trkpt>
      <trkpt lat="45.24704" lon="6.13024">
        <ele>2741</ele>
        <time>2022-05-07T08:43:45.123Z</time>
      </trkpt>
      <trkpt lat="45.24704" lon="6.13024">
        <ele>2741</ele>
        <time>2022-05-07T08:56:34.116Z</time>
      </trkpt>
      <trkpt lat="45.24709" lon="6.13057">
        <ele>2747</ele>
        <time>2022-05-07T08:56:35.119Z</time>
      </trkpt>
      <trkpt lat="45.24703" lon="6.13069">
        <ele>2747</ele>
        <time>2022-05-07T08:56:38.118Z</time>
      </trkpt>
      <trkpt lat="45.24706" lon="6.13081">
        <ele>2747</ele>
        <time>2022-05-07T08:56:42.177Z</time>
      </trkpt>
      <trkpt lat="45.24705" lon="6.13102">
        <ele>2746</ele>
        <time>2022-05-07T08:56:46.108Z</time>
      </trkpt>
      <trkpt lat="45.24711" lon="6.13117">
        <ele>2744</ele>
        <time>2022-05-07T08:56:55.150Z</time>
      </trkpt>
      <trkpt lat="45.24711" lon="6.13134">
        <ele>2743</ele>
        <time>2022-05-07T08:56:58.163Z</time>
      </trkpt>
      <trkpt lat="45.2471" lon="6.13147">
        <ele>2743</ele>
        <time>2022-05-07T08:57:00.181Z</time>
      </trkpt>
      <trkpt lat="45.24709" lon="6.13169">
        <ele>2741</ele>
        <time>2022-05-07T08:57:03.185Z</time>
      </trkpt>
      <trkpt lat="45.24705" lon="6.13197">
        <ele>2739</ele>
        <time>2022-05-07T08:57:07.168Z</time>
      </trkpt>
      <trkpt lat="45.24703" lon="6.13227">
        <ele>2737</ele>
        <time>2022-05-07T08:57:11.180Z</time>
      </trkpt>
      <trkpt lat="45.2471" lon="6.13241">
        <ele>2725</ele>
        <time>2022-05-07T08:57:27.163Z</time>
      </trkpt>
      <trkpt lat="45.24714" lon="6.13254">
        <ele>2723</ele>
        <time>2022-05-07T08:57:30.165Z</time>
      </trkpt>
      <trkpt lat="45.24718" lon="6.13267">
        <ele>2721</ele>
        <time>2022-05-07T08:57:33.161Z</time>
      </trkpt>
      <trkpt lat="45.24725" lon="6.13276">
        <ele>2719</ele>
        <time>2022-05-07T08:57:36.155Z</time>
      </trkpt>
      <trkpt lat="45.24728" lon="6.13277">
        <ele>2708</ele>
        <time>2022-05-07T08:57:50.115Z</time>
      </trkpt>
      <trkpt lat="45.24728" lon="6.13277">
        <ele>2708</ele>
        <time>2022-05-07T08:59:11.104Z</time>
      </trkpt>
      <trkpt lat="45.24727" lon="6.13315">
        <ele>2686</ele>
        <time>2022-05-07T08:59:12.117Z</time>
      </trkpt>
      <trkpt lat="45.24725" lon="6.1333">
        <ele>2686</ele>
        <time>2022-05-07T08:59:14.146Z</time>
      </trkpt>
      <trkpt lat="45.24726" lon="6.13346">
        <ele>2686</ele>
        <time>2022-05-07T08:59:16.148Z</time>
      </trkpt>
      <trkpt lat="45.24723" lon="6.13377">
        <ele>2685</ele>
        <time>2022-05-07T08:59:21.135Z</time>
      </trkpt>
      <trkpt lat="45.24731" lon="6.13386">
        <ele>2682</ele>
        <time>2022-05-07T08:59:30.157Z</time>
      </trkpt>
      <trkpt lat="45.24738" lon="6.13404">
        <ele>2681</ele>
        <time>2022-05-07T08:59:33.162Z</time>
      </trkpt>
      <trkpt lat="45.24747" lon="6.13422">
        <ele>2681</ele>
        <time>2022-05-07T08:59:35.139Z</time>
      </trkpt>
      <trkpt lat="45.24757" lon="6.13436">
        <ele>2680</ele>
        <time>2022-05-07T08:59:37.111Z</time>
      </trkpt>
      <trkpt lat="45.24776" lon="6.1346">
        <ele>2679</ele>
        <time>2022-05-07T08:59:40.112Z</time>
      </trkpt>
      <trkpt lat="45.24784" lon="6.13482">
        <ele>2673</ele>
        <time>2022-05-07T08:59:49.111Z</time>
      </trkpt>
      <trkpt lat="45.2479" lon="6.13498">
        <ele>2670</ele>
        <time>2022-05-07T08:59:54.153Z</time>
      </trkpt>
      <trkpt lat="45.24796" lon="6.1351">
        <ele>2669</ele>
        <time>2022-05-07T08:59:56.103Z</time>
      </trkpt>
      <trkpt lat="45.24805" lon="6.13521">
        <ele>2668</ele>
        <time>2022-05-07T08:59:58.117Z</time>
      </trkpt>
      <trkpt lat="45.24817" lon="6.13534">
        <ele>2666</ele>
        <time>2022-05-07T09:00:01.117Z</time>
      </trkpt>
      <trkpt lat="45.24822" lon="6.13545">
        <ele>2657</ele>
        <time>2022-05-07T09:00:13.146Z</time>
      </trkpt>
      <trkpt lat="45.2483" lon="6.13556">
        <ele>2655</ele>
        <time>2022-05-07T09:00:15.165Z</time>
      </trkpt>
      <trkpt lat="45.2484" lon="6.13565">
        <ele>2654</ele>
        <time>2022-05-07T09:00:17.146Z</time>
      </trkpt>
      <trkpt lat="45.24849" lon="6.13577">
        <ele>2653</ele>
        <time>2022-05-07T09:00:19.162Z</time>
      </trkpt>
      <trkpt lat="45.24852" lon="6.13589">
        <ele>2646</ele>
        <time>2022-05-07T09:00:29.157Z</time>
      </trkpt>
      <trkpt lat="45.24858" lon="6.13603">
        <ele>2643</ele>
        <time>2022-05-07T09:00:33.160Z</time>
      </trkpt>
      <trkpt lat="45.24862" lon="6.13617">
        <ele>2642</ele>
        <time>2022-05-07T09:00:35.137Z</time>
      </trkpt>
      <trkpt lat="45.24867" lon="6.13632">
        <ele>2641</ele>
        <time>2022-05-07T09:00:37.147Z</time>
      </trkpt>
      <trkpt lat="45.24869" lon="6.13655">
        <ele>2639</ele>
        <time>2022-05-07T09:00:40.135Z</time>
      </trkpt>
      <trkpt lat="45.24873" lon="6.13686">
        <ele>2637</ele>
        <time>2022-05-07T09:00:44.133Z</time>
      </trkpt>
      <trkpt lat="45.24872" lon="6.13697">
        <ele>2627</ele>
        <time>2022-05-07T09:01:00.103Z</time>
      </trkpt>
      <trkpt lat="45.24872" lon="6.13697">
        <ele>2627</ele>
        <time>2022-05-07T09:02:10.104Z</time>
      </trkpt>
      <trkpt lat="45.24895" lon="6.13713">
        <ele>2616</ele>
        <time>2022-05-07T09:02:11.095Z</time>
      </trkpt>
      <trkpt lat="45.24903" lon="6.13722">
        <ele>2615</ele>
        <time>2022-05-07T09:02:14.094Z</time>
      </trkpt>
      <trkpt lat="45.24911" lon="6.13741">
        <ele>2614</ele>
        <time>2022-05-07T09:02:18.129Z</time>
      </trkpt>
      <trkpt lat="45.24921" lon="6.13761">
        <ele>2613</ele>
        <time>2022-05-07T09:02:22.115Z</time>
      </trkpt>
      <trkpt lat="45.24933" lon="6.13783">
        <ele>2610</ele>
        <time>2022-05-07T09:02:27.113Z</time>
      </trkpt>
      <trkpt lat="45.2494" lon="6.13812">
        <ele>2607</ele>
        <time>2022-05-07T09:02:31.102Z</time>
      </trkpt>
      <trkpt lat="45.2495" lon="6.13844">
        <ele>2603</ele>
        <time>2022-05-07T09:02:35.091Z</time>
      </trkpt>
      <trkpt lat="45.24951" lon="6.13858">
        <ele>2590</ele>
        <time>2022-05-07T09:02:46.105Z</time>
      </trkpt>
      <trkpt lat="45.24961" lon="6.13859">
        <ele>2586</ele>
        <time>2022-05-07T09:02:49.122Z</time>
      </trkpt>
      <trkpt lat="45.24965" lon="6.13871">
        <ele>2584</ele>
        <time>2022-05-07T09:02:51.099Z</time>
      </trkpt>
      <trkpt lat="45.24972" lon="6.13882">
        <ele>2581</ele>
        <time>2022-05-07T09:02:53.099Z</time>
      </trkpt>
      <trkpt lat="45.24978" lon="6.13895">
        <ele>2578</ele>
        <time>2022-05-07T09:02:55.098Z</time>
      </trkpt>
      <trkpt lat="45.24992" lon="6.13916">
        <ele>2573</ele>
        <time>2022-05-07T09:02:59.098Z</time>
      </trkpt>
      <trkpt lat="45.25" lon="6.13947">
        <ele>2567</ele>
        <time>2022-05-07T09:03:03.107Z</time>
      </trkpt>
      <trkpt lat="45.25018" lon="6.13981">
        <ele>2560</ele>
        <time>2022-05-07T09:03:08.103Z</time>
      </trkpt>
      <trkpt lat="45.25034" lon="6.14022">
        <ele>2554</ele>
        <time>2022-05-07T09:03:12.090Z</time>
      </trkpt>
      <trkpt lat="45.25051" lon="6.14062">
        <ele>2548</ele>
        <time>2022-05-07T09:03:16.096Z</time>
      </trkpt>
      <trkpt lat="45.25057" lon="6.14096">
        <ele>2537</ele>
        <time>2022-05-07T09:03:25.095Z</time>
      </trkpt>
      <trkpt lat="45.25062" lon="6.14108">
        <ele>2531</ele>
        <time>2022-05-07T09:03:30.104Z</time>
      </trkpt>
      <trkpt lat="45.25065" lon="6.14124">
        <ele>2528</ele>
        <time>2022-05-07T09:03:32.101Z</time>
      </trkpt>
      <trkpt lat="45.25071" lon="6.14149">
        <ele>2526</ele>
        <time>2022-05-07T09:03:34.094Z</time>
      </trkpt>
      <trkpt lat="45.25074" lon="6.14161">
        <ele>2524</ele>
        <time>2022-05-07T09:03:35.094Z</time>
      </trkpt>
      <trkpt lat="45.25084" lon="6.14199">
        <ele>2521</ele>
        <time>2022-05-07T09:03:38.092Z</time>
      </trkpt>
      <trkpt lat="45.251" lon="6.14248">
        <ele>2515</ele>
        <time>2022-05-07T09:03:43.095Z</time>
      </trkpt>
      <trkpt lat="45.25115" lon="6.14297">
        <ele>2508</ele>
        <time>2022-05-07T09:03:49.103Z</time>
      </trkpt>
      <trkpt lat="45.25124" lon="6.14346">
        <ele>2503</ele>
        <time>2022-05-07T09:03:54.100Z</time>
      </trkpt>
      <trkpt lat="45.25137" lon="6.14385">
        <ele>2498</ele>
        <time>2022-05-07T09:03:58.095Z</time>
      </trkpt>
      <trkpt lat="45.25152" lon="6.14423">
        <ele>2492</ele>
        <time>2022-05-07T09:04:04.094Z</time>
      </trkpt>
      <trkpt lat="45.25164" lon="6.14451">
        <ele>2487</ele>
        <time>2022-05-07T09:04:10.107Z</time>
      </trkpt>
      <trkpt lat="45.25174" lon="6.14475">
        <ele>2483</ele>
        <time>2022-05-07T09:04:14.111Z</time>
      </trkpt>
      <trkpt lat="45.25178" lon="6.14503">
        <ele>2479</ele>
        <time>2022-05-07T09:04:18.122Z</time>
      </trkpt>
      <trkpt lat="45.25177" lon="6.14513">
        <ele>2464</ele>
        <time>2022-05-07T09:04:36.103Z</time>
      </trkpt>
      <trkpt lat="45.25177" lon="6.14513">
        <ele>2464</ele>
        <time>2022-05-07T09:06:45.100Z</time>
      </trkpt>
      <trkpt lat="45.25166" lon="6.14545">
        <ele>2450</ele>
        <time>2022-05-07T09:06:46.094Z</time>
      </trkpt>
      <trkpt lat="45.2516" lon="6.14558">
        <ele>2449</ele>
        <time>2022-05-07T09:06:50.133Z</time>
      </trkpt>
      <trkpt lat="45.25165" lon="6.14565">
        <ele>2441</ele>
        <time>2022-05-07T09:07:08.108Z</time>
      </trkpt>
      <trkpt lat="45.25165" lon="6.14565">
        <ele>2441</ele>
        <time>2022-05-07T09:07:33.119Z</time>
      </trkpt>
      <trkpt lat="45.25155" lon="6.14594">
        <ele>2431</ele>
        <time>2022-05-07T09:07:34.171Z</time>
      </trkpt>
      <trkpt lat="45.25162" lon="6.14604">
        <ele>2429</ele>
        <time>2022-05-07T09:07:43.107Z</time>
      </trkpt>
      <trkpt lat="45.25172" lon="6.14609">
        <ele>2426</ele>
        <time>2022-05-07T09:07:53.118Z</time>
      </trkpt>
      <trkpt lat="45.25181" lon="6.14612">
        <ele>2422</ele>
        <time>2022-05-07T09:08:02.111Z</time>
      </trkpt>
      <trkpt lat="45.25178" lon="6.14624">
        <ele>2417</ele>
        <time>2022-05-07T09:08:12.106Z</time>
      </trkpt>
      <trkpt lat="45.25187" lon="6.14632">
        <ele>2412</ele>
        <time>2022-05-07T09:08:22.097Z</time>
      </trkpt>
      <trkpt lat="45.25194" lon="6.14649">
        <ele>2410</ele>
        <time>2022-05-07T09:08:25.105Z</time>
      </trkpt>
      <trkpt lat="45.25193" lon="6.14664">
        <ele>2409</ele>
        <time>2022-05-07T09:08:27.106Z</time>
      </trkpt>
      <trkpt lat="45.25204" lon="6.14666">
        <ele>2403</ele>
        <time>2022-05-07T09:08:38.118Z</time>
      </trkpt>
      <trkpt lat="45.25204" lon="6.14666">
        <ele>2398</ele>
        <time>2022-05-07T09:08:47.163Z</time>
      </trkpt>
      <trkpt lat="45.25204" lon="6.14666">
        <ele>2398</ele>
        <time>2022-05-07T09:09:18.137Z</time>
      </trkpt>
      <trkpt lat="45.25225" lon="6.14679">
        <ele>2384</ele>
        <time>2022-05-07T09:09:19.158Z</time>
      </trkpt>
      <trkpt lat="45.25236" lon="6.14684">
        <ele>2381</ele>
        <time>2022-05-07T09:09:27.120Z</time>
      </trkpt>
      <trkpt lat="45.25246" lon="6.14686">
        <ele>2380</ele>
        <time>2022-05-07T09:09:31.197Z</time>
      </trkpt>
      <trkpt lat="45.25253" lon="6.14677">
        <ele>2373</ele>
        <time>2022-05-07T09:09:48.133Z</time>
      </trkpt>
      <trkpt lat="45.25262" lon="6.14673">
        <ele>2367</ele>
        <time>2022-05-07T09:10:04.140Z</time>
      </trkpt>
      <trkpt lat="45.25271" lon="6.14679">
        <ele>2365</ele>
        <time>2022-05-07T09:10:08.112Z</time>
      </trkpt>
      <trkpt lat="45.2528" lon="6.14676">
        <ele>2363</ele>
        <time>2022-05-07T09:10:14.141Z</time>
      </trkpt>
      <trkpt lat="45.25286" lon="6.14665">
        <ele>2359</ele>
        <time>2022-05-07T09:10:29.113Z</time>
      </trkpt>
      <trkpt lat="45.25296" lon="6.14664">
        <ele>2358</ele>
        <time>2022-05-07T09:10:33.108Z</time>
      </trkpt>
      <trkpt lat="45.25305" lon="6.14659">
        <ele>2356</ele>
        <time>2022-05-07T09:10:39.135Z</time>
      </trkpt>
      <trkpt lat="45.25313" lon="6.14668">
        <ele>2350</ele>
        <time>2022-05-07T09:10:55.156Z</time>
      </trkpt>
      <trkpt lat="45.25317" lon="6.14679">
        <ele>2348</ele>
        <time>2022-05-07T09:11:00.150Z</time>
      </trkpt>
      <trkpt lat="45.25322" lon="6.1469">
        <ele>2344</ele>
        <time>2022-05-07T09:11:09.155Z</time>
      </trkpt>
      <trkpt lat="45.25327" lon="6.14701">
        <ele>2325</ele>
        <time>2022-05-07T09:11:44.148Z</time>
      </trkpt>
      <trkpt lat="45.25328" lon="6.14719">
        <ele>2323</ele>
        <time>2022-05-07T09:11:49.156Z</time>
      </trkpt>
      <trkpt lat="45.25327" lon="6.14735">
        <ele>2321</ele>
        <time>2022-05-07T09:11:52.128Z</time>
      </trkpt>
      <trkpt lat="45.25334" lon="6.14751">
        <ele>2320</ele>
        <time>2022-05-07T09:11:56.167Z</time>
      </trkpt>
      <trkpt lat="45.25335" lon="6.14757">
        <ele>2312</ele>
        <time>2022-05-07T09:12:13.128Z</time>
      </trkpt>
      <trkpt lat="45.25335" lon="6.14757">
        <ele>2312</ele>
        <time>2022-05-07T09:12:26.125Z</time>
      </trkpt>
      <trkpt lat="45.25352" lon="6.14787">
        <ele>2307</ele>
        <time>2022-05-07T09:12:27.129Z</time>
      </trkpt>
      <trkpt lat="45.25356" lon="6.14799">
        <ele>2306</ele>
        <time>2022-05-07T09:12:29.156Z</time>
      </trkpt>
      <trkpt lat="45.25365" lon="6.14823">
        <ele>2305</ele>
        <time>2022-05-07T09:12:33.163Z</time>
      </trkpt>
      <trkpt lat="45.25364" lon="6.14854">
        <ele>2304</ele>
        <time>2022-05-07T09:12:36.104Z</time>
      </trkpt>
      <trkpt lat="45.25362" lon="6.14894">
        <ele>2302</ele>
        <time>2022-05-07T09:12:40.128Z</time>
      </trkpt>
      <trkpt lat="45.25364" lon="6.14942">
        <ele>2300</ele>
        <time>2022-05-07T09:12:45.167Z</time>
      </trkpt>
      <trkpt lat="45.25373" lon="6.14979">
        <ele>2297</ele>
        <time>2022-05-07T09:12:51.148Z</time>
      </trkpt>
      <trkpt lat="45.25375" lon="6.14986">
        <ele>2286</ele>
        <time>2022-05-07T09:13:07.162Z</time>
      </trkpt>
      <trkpt lat="45.25375" lon="6.14986">
        <ele>2286</ele>
        <time>2022-05-07T09:15:36.091Z</time>
      </trkpt>
      <trkpt lat="45.25372" lon="6.15022">
        <ele>2259</ele>
        <time>2022-05-07T09:15:37.151Z</time>
      </trkpt>
      <trkpt lat="45.25369" lon="6.1504">
        <ele>2259</ele>
        <time>2022-05-07T09:15:39.196Z</time>
      </trkpt>
      <trkpt lat="45.25355" lon="6.15061">
        <ele>2258</ele>
        <time>2022-05-07T09:15:42.116Z</time>
      </trkpt>
      <trkpt lat="45.25335" lon="6.15088">
        <ele>2257</ele>
        <time>2022-05-07T09:15:48.172Z</time>
      </trkpt>
      <trkpt lat="45.25326" lon="6.15114">
        <ele>2254</ele>
        <time>2022-05-07T09:15:55.141Z</time>
      </trkpt>
      <trkpt lat="45.25319" lon="6.1514">
        <ele>2251</ele>
        <time>2022-05-07T09:15:59.169Z</time>
      </trkpt>
      <trkpt lat="45.25314" lon="6.15167">
        <ele>2249</ele>
        <time>2022-05-07T09:16:02.167Z</time>
      </trkpt>
      <trkpt lat="45.2531" lon="6.15201">
        <ele>2247</ele>
        <time>2022-05-07T09:16:05.174Z</time>
      </trkpt>
      <trkpt lat="45.25301" lon="6.15253">
        <ele>2244</ele>
        <time>2022-05-07T09:16:09.101Z</time>
      </trkpt>
      <trkpt lat="45.2529" lon="6.15306">
        <ele>2239</ele>
        <time>2022-05-07T09:16:14.165Z</time>
      </trkpt>
      <trkpt lat="45.25274" lon="6.15354">
        <ele>2232</ele>
        <time>2022-05-07T09:16:20.127Z</time>
      </trkpt>
      <trkpt lat="45.25262" lon="6.1539">
        <ele>2225</ele>
        <time>2022-05-07T09:16:26.151Z</time>
      </trkpt>
      <trkpt lat="45.25259" lon="6.15403">
        <ele>2210</ele>
        <time>2022-05-07T09:16:39.141Z</time>
      </trkpt>
      <trkpt lat="45.25257" lon="6.15417">
        <ele>2194</ele>
        <time>2022-05-07T09:16:57.177Z</time>
      </trkpt>
      <trkpt lat="45.25257" lon="6.15417">
        <ele>2192</ele>
        <time>2022-05-07T09:17:02.136Z</time>
      </trkpt>
      <trkpt lat="45.25257" lon="6.15417">
        <ele>2192</ele>
        <time>2022-05-07T09:17:18.164Z</time>
      </trkpt>
      <trkpt lat="45.2525" lon="6.1545">
        <ele>2186</ele>
        <time>2022-05-07T09:17:19.157Z</time>
      </trkpt>
      <trkpt lat="45.25246" lon="6.15467">
        <ele>2186</ele>
        <time>2022-05-07T09:17:22.163Z</time>
      </trkpt>
      <trkpt lat="45.25238" lon="6.15485">
        <ele>2185</ele>
        <time>2022-05-07T09:17:25.162Z</time>
      </trkpt>
      <trkpt lat="45.25226" lon="6.15504">
        <ele>2185</ele>
        <time>2022-05-07T09:17:28.165Z</time>
      </trkpt>
      <trkpt lat="45.25214" lon="6.1553">
        <ele>2184</ele>
        <time>2022-05-07T09:17:32.141Z</time>
      </trkpt>
      <trkpt lat="45.25205" lon="6.15561">
        <ele>2183</ele>
        <time>2022-05-07T09:17:38.133Z</time>
      </trkpt>
      <trkpt lat="45.25197" lon="6.15586">
        <ele>2181</ele>
        <time>2022-05-07T09:17:43.148Z</time>
      </trkpt>
      <trkpt lat="45.2519" lon="6.15605">
        <ele>2180</ele>
        <time>2022-05-07T09:17:47.151Z</time>
      </trkpt>
      <trkpt lat="45.25184" lon="6.15627">
        <ele>2179</ele>
        <time>2022-05-07T09:17:51.140Z</time>
      </trkpt>
      <trkpt lat="45.25178" lon="6.15651">
        <ele>2178</ele>
        <time>2022-05-07T09:17:55.157Z</time>
      </trkpt>
      <trkpt lat="45.25173" lon="6.15678">
        <ele>2177</ele>
        <time>2022-05-07T09:17:59.175Z</time>
      </trkpt>
      <trkpt lat="45.25167" lon="6.15706">
        <ele>2175</ele>
        <time>2022-05-07T09:18:05.155Z</time>
      </trkpt>
      <trkpt lat="45.25164" lon="6.15726">
        <ele>2174</ele>
        <time>2022-05-07T09:18:11.145Z</time>
      </trkpt>
      <trkpt lat="45.25159" lon="6.15742">
        <ele>2172</ele>
        <time>2022-05-07T09:18:16.156Z</time>
      </trkpt>
      <trkpt lat="45.25156" lon="6.15756">
        <ele>2172</ele>
        <time>2022-05-07T09:18:18.174Z</time>
      </trkpt>
      <trkpt lat="45.25152" lon="6.15769">
        <ele>2171</ele>
        <time>2022-05-07T09:18:20.186Z</time>
      </trkpt>
      <trkpt lat="45.25142" lon="6.1579">
        <ele>2170</ele>
        <time>2022-05-07T09:18:25.154Z</time>
      </trkpt>
      <trkpt lat="45.25136" lon="6.15795">
        <ele>2166</ele>
        <time>2022-05-07T09:18:41.149Z</time>
      </trkpt>
      <trkpt lat="45.25136" lon="6.15795">
        <ele>2166</ele>
        <time>2022-05-07T09:19:49.128Z</time>
      </trkpt>
      <trkpt lat="45.25123" lon="6.15822">
        <ele>2162</ele>
        <time>2022-05-07T09:19:50.170Z</time>
      </trkpt>
      <trkpt lat="45.25114" lon="6.15834">
        <ele>2162</ele>
        <time>2022-05-07T09:19:52.160Z</time>
      </trkpt>
      <trkpt lat="45.25105" lon="6.15851">
        <ele>2162</ele>
        <time>2022-05-07T09:19:55.154Z</time>
      </trkpt>
      <trkpt lat="45.25094" lon="6.15879">
        <ele>2161</ele>
        <time>2022-05-07T09:19:59.155Z</time>
      </trkpt>
      <trkpt lat="45.25082" lon="6.15915">
        <ele>2160</ele>
        <time>2022-05-07T09:20:03.153Z</time>
      </trkpt>
      <trkpt lat="45.25076" lon="6.1595">
        <ele>2158</ele>
        <time>2022-05-07T09:20:08.177Z</time>
      </trkpt>
      <trkpt lat="45.25072" lon="6.15984">
        <ele>2156</ele>
        <time>2022-05-07T09:20:13.163Z</time>
      </trkpt>
      <trkpt lat="45.25064" lon="6.1601">
        <ele>2153</ele>
        <time>2022-05-07T09:20:18.164Z</time>
      </trkpt>
      <trkpt lat="45.2505" lon="6.16029">
        <ele>2150</ele>
        <time>2022-05-07T09:20:23.183Z</time>
      </trkpt>
      <trkpt lat="45.25038" lon="6.16049">
        <ele>2147</ele>
        <time>2022-05-07T09:20:27.143Z</time>
      </trkpt>
      <trkpt lat="45.25025" lon="6.16068">
        <ele>2144</ele>
        <time>2022-05-07T09:20:31.173Z</time>
      </trkpt>
      <trkpt lat="45.25012" lon="6.16094">
        <ele>2140</ele>
        <time>2022-05-07T09:20:36.205Z</time>
      </trkpt>
      <trkpt lat="45.25001" lon="6.16118">
        <ele>2135</ele>
        <time>2022-05-07T09:20:41.155Z</time>
      </trkpt>
      <trkpt lat="45.24989" lon="6.1614">
        <ele>2130</ele>
        <time>2022-05-07T09:20:46.179Z</time>
      </trkpt>
      <trkpt lat="45.24979" lon="6.16162">
        <ele>2125</ele>
        <time>2022-05-07T09:20:50.094Z</time>
      </trkpt>
      <trkpt lat="45.24974" lon="6.1619">
        <ele>2121</ele>
        <time>2022-05-07T09:20:54.079Z</time>
      </trkpt>
      <trkpt lat="45.24971" lon="6.16215">
        <ele>2115</ele>
        <time>2022-05-07T09:21:00.077Z</time>
      </trkpt>
      <trkpt lat="45.2497" lon="6.16238">
        <ele>2111</ele>
        <time>2022-05-07T09:21:05.103Z</time>
      </trkpt>
      <trkpt lat="45.24967" lon="6.1625">
        <ele>2103</ele>
        <time>2022-05-07T09:21:13.089Z</time>
      </trkpt>
      <trkpt lat="45.24967" lon="6.1625">
        <ele>2097</ele>
        <time>2022-05-07T09:21:22.114Z</time>
      </trkpt>
      <trkpt lat="45.24967" lon="6.1625">
        <ele>2097</ele>
        <time>2022-05-07T09:24:14.122Z</time>
      </trkpt>
      <trkpt lat="45.24951" lon="6.16281">
        <ele>2074</ele>
        <time>2022-05-07T09:24:15.098Z</time>
      </trkpt>
      <trkpt lat="45.24944" lon="6.16296">
        <ele>2073</ele>
        <time>2022-05-07T09:24:18.119Z</time>
      </trkpt>
      <trkpt lat="45.24934" lon="6.16315">
        <ele>2073</ele>
        <time>2022-05-07T09:24:23.109Z</time>
      </trkpt>
      <trkpt lat="45.24926" lon="6.16332">
        <ele>2073</ele>
        <time>2022-05-07T09:24:28.178Z</time>
      </trkpt>
      <trkpt lat="45.2492" lon="6.16343">
        <ele>2072</ele>
        <time>2022-05-07T09:24:33.114Z</time>
      </trkpt>
      <trkpt lat="45.24911" lon="6.16348">
        <ele>2071</ele>
        <time>2022-05-07T09:24:39.157Z</time>
      </trkpt>
      <trkpt lat="45.2491" lon="6.16366">
        <ele>2069</ele>
        <time>2022-05-07T09:24:47.082Z</time>
      </trkpt>
      <trkpt lat="45.24904" lon="6.1638">
        <ele>2068</ele>
        <time>2022-05-07T09:24:50.075Z</time>
      </trkpt>
      <trkpt lat="45.249" lon="6.16398">
        <ele>2067</ele>
        <time>2022-05-07T09:24:52.075Z</time>
      </trkpt>
      <trkpt lat="45.24892" lon="6.16413">
        <ele>2066</ele>
        <time>2022-05-07T09:24:54.097Z</time>
      </trkpt>
      <trkpt lat="45.24878" lon="6.16435">
        <ele>2062</ele>
        <time>2022-05-07T09:25:01.080Z</time>
      </trkpt>
      <trkpt lat="45.24868" lon="6.16449">
        <ele>2059</ele>
        <time>2022-05-07T09:25:05.108Z</time>
      </trkpt>
      <trkpt lat="45.24862" lon="6.16459">
        <ele>2054</ele>
        <time>2022-05-07T09:25:11.106Z</time>
      </trkpt>
      <trkpt lat="45.24854" lon="6.16466">
        <ele>2043</ele>
        <time>2022-05-07T09:25:26.117Z</time>
      </trkpt>
      <trkpt lat="45.24857" lon="6.16478">
        <ele>2037</ele>
        <time>2022-05-07T09:25:33.113Z</time>
      </trkpt>
      <trkpt lat="45.24856" lon="6.16492">
        <ele>2031</ele>
        <time>2022-05-07T09:25:41.126Z</time>
      </trkpt>
      <trkpt lat="45.24852" lon="6.16504">
        <ele>2024</ele>
        <time>2022-05-07T09:25:50.129Z</time>
      </trkpt>
      <trkpt lat="45.24852" lon="6.16518">
        <ele>2012</ele>
        <time>2022-05-07T09:26:08.106Z</time>
      </trkpt>
      <trkpt lat="45.24853" lon="6.16531">
        <ele>2006</ele>
        <time>2022-05-07T09:26:18.121Z</time>
      </trkpt>
      <trkpt lat="45.24845" lon="6.16537">
        <ele>2002</ele>
        <time>2022-05-07T09:26:24.151Z</time>
      </trkpt>
      <trkpt lat="45.24836" lon="6.1654">
        <ele>1996</ele>
        <time>2022-05-07T09:26:38.131Z</time>
      </trkpt>
      <trkpt lat="45.24827" lon="6.16544">
        <ele>1995</ele>
        <time>2022-05-07T09:26:42.150Z</time>
      </trkpt>
      <trkpt lat="45.24819" lon="6.16551">
        <ele>1991</ele>
        <time>2022-05-07T09:26:53.149Z</time>
      </trkpt>
      <trkpt lat="45.24815" lon="6.16557">
        <ele>1983</ele>
        <time>2022-05-07T09:27:12.150Z</time>
      </trkpt>
      <trkpt lat="45.24815" lon="6.16557">
        <ele>1983</ele>
        <time>2022-05-07T09:27:45.117Z</time>
      </trkpt>
      <trkpt lat="45.248" lon="6.16584">
        <ele>1975</ele>
        <time>2022-05-07T09:27:46.112Z</time>
      </trkpt>
      <trkpt lat="45.24798" lon="6.16588">
        <ele>1972</ele>
        <time>2022-05-07T09:28:01.098Z</time>
      </trkpt>
      <trkpt lat="45.24798" lon="6.16588">
        <ele>1972</ele>
        <time>2022-05-07T09:35:48.137Z</time>
      </trkpt>
      <trkpt lat="45.24782" lon="6.16612">
        <ele>1965</ele>
        <time>2022-05-07T09:35:49.164Z</time>
      </trkpt>
      <trkpt lat="45.24776" lon="6.16622">
        <ele>1961</ele>
        <time>2022-05-07T09:36:10.075Z</time>
      </trkpt>
      <trkpt lat="45.24769" lon="6.16632">
        <ele>1960</ele>
        <time>2022-05-07T09:36:23.098Z</time>
      </trkpt>
      <trkpt lat="45.24761" lon="6.16639">
        <ele>1959</ele>
        <time>2022-05-07T09:36:37.090Z</time>
      </trkpt>
      <trkpt lat="45.24753" lon="6.16645">
        <ele>1958</ele>
        <time>2022-05-07T09:36:49.096Z</time>
      </trkpt>
      <trkpt lat="45.24749" lon="6.16654">
        <ele>1956</ele>
        <time>2022-05-07T09:37:11.096Z</time>
      </trkpt>
      <trkpt lat="45.24749" lon="6.16654">
        <ele>1956</ele>
        <time>2022-05-07T09:37:51.090Z</time>
      </trkpt>
      <trkpt lat="45.24732" lon="6.16678">
        <ele>1951</ele>
        <time>2022-05-07T09:37:52.106Z</time>
      </trkpt>
      <trkpt lat="45.24725" lon="6.16686">
        <ele>1949</ele>
        <time>2022-05-07T09:38:09.091Z</time>
      </trkpt>
      <trkpt lat="45.24717" lon="6.16694">
        <ele>1947</ele>
        <time>2022-05-07T09:38:24.073Z</time>
      </trkpt>
      <trkpt lat="45.24712" lon="6.16705">
        <ele>1944</ele>
        <time>2022-05-07T09:38:57.159Z</time>
      </trkpt>
      <trkpt lat="45.2471" lon="6.16708">
        <ele>1943</ele>
        <time>2022-05-07T09:39:08.158Z</time>
      </trkpt>
      <trkpt lat="45.2471" lon="6.16708">
        <ele>1943</ele>
        <time>2022-05-07T09:39:57.114Z</time>
      </trkpt>
      <trkpt lat="45.24689" lon="6.16723">
        <ele>1934</ele>
        <time>2022-05-07T09:39:58.182Z</time>
      </trkpt>
      <trkpt lat="45.24682" lon="6.16731">
        <ele>1931</ele>
        <time>2022-05-07T09:40:16.153Z</time>
      </trkpt>
      <trkpt lat="45.24676" lon="6.16741">
        <ele>1926</ele>
        <time>2022-05-07T09:40:35.167Z</time>
      </trkpt>
      <trkpt lat="45.2467" lon="6.1675">
        <ele>1918</ele>
        <time>2022-05-07T09:41:06.165Z</time>
      </trkpt>
      <trkpt lat="45.2467" lon="6.1675">
        <ele>1918</ele>
        <time>2022-05-07T09:41:47.159Z</time>
      </trkpt>
      <trkpt lat="45.24653" lon="6.16772">
        <ele>1912</ele>
        <time>2022-05-07T09:41:48.152Z</time>
      </trkpt>
      <trkpt lat="45.24646" lon="6.1678">
        <ele>1911</ele>
        <time>2022-05-07T09:42:05.169Z</time>
      </trkpt>
      <trkpt lat="45.24642" lon="6.16785">
        <ele>1910</ele>
        <time>2022-05-07T09:42:24.155Z</time>
      </trkpt>
      <trkpt lat="45.24642" lon="6.16785">
        <ele>1910</ele>
        <time>2022-05-07T09:44:05.155Z</time>
      </trkpt>
      <trkpt lat="45.24619" lon="6.16788">
        <ele>1892</ele>
        <time>2022-05-07T09:44:06.176Z</time>
      </trkpt>
      <trkpt lat="45.24611" lon="6.16795">
        <ele>1888</ele>
        <time>2022-05-07T09:44:26.154Z</time>
      </trkpt>
      <trkpt lat="45.24603" lon="6.16802">
        <ele>1883</ele>
        <time>2022-05-07T09:44:54.159Z</time>
      </trkpt>
      <trkpt lat="45.24594" lon="6.16805">
        <ele>1882</ele>
        <time>2022-05-07T09:45:09.167Z</time>
      </trkpt>
      <trkpt lat="45.24587" lon="6.16814">
        <ele>1881</ele>
        <time>2022-05-07T09:45:19.102Z</time>
      </trkpt>
      <trkpt lat="45.24579" lon="6.16822">
        <ele>1881</ele>
        <time>2022-05-07T09:45:39.161Z</time>
      </trkpt>
      <trkpt lat="45.24571" lon="6.16827">
        <ele>1880</ele>
        <time>2022-05-07T09:45:56.169Z</time>
      </trkpt>
      <trkpt lat="45.24562" lon="6.16825">
        <ele>1876</ele>
        <time>2022-05-07T09:46:19.094Z</time>
      </trkpt>
      <trkpt lat="45.24562" lon="6.16825">
        <ele>1876</ele>
        <time>2022-05-07T09:46:58.167Z</time>
      </trkpt>
      <trkpt lat="45.24543" lon="6.16844">
        <ele>1871</ele>
        <time>2022-05-07T09:46:59.174Z</time>
      </trkpt>
      <trkpt lat="45.24534" lon="6.16851">
        <ele>1871</ele>
        <time>2022-05-07T09:47:16.157Z</time>
      </trkpt>
      <trkpt lat="45.24526" lon="6.16857">
        <ele>1869</ele>
        <time>2022-05-07T09:47:29.182Z</time>
      </trkpt>
      <trkpt lat="45.24517" lon="6.1686">
        <ele>1866</ele>
        <time>2022-05-07T09:47:46.136Z</time>
      </trkpt>
      <trkpt lat="45.2451" lon="6.16867">
        <ele>1861</ele>
        <time>2022-05-07T09:48:06.164Z</time>
      </trkpt>
      <trkpt lat="45.24501" lon="6.16872">
        <ele>1859</ele>
        <time>2022-05-07T09:48:18.138Z</time>
      </trkpt>
      <trkpt lat="45.24493" lon="6.16875">
        <ele>1857</ele>
        <time>2022-05-07T09:48:36.168Z</time>
      </trkpt>
      <trkpt lat="45.24484" lon="6.1688">
        <ele>1854</ele>
        <time>2022-05-07T09:48:48.158Z</time>
      </trkpt>
      <trkpt lat="45.24475" lon="6.16882">
        <ele>1851</ele>
        <time>2022-05-07T09:49:10.121Z</time>
      </trkpt>
      <trkpt lat="45.24474" lon="6.16883">
        <ele>1851</ele>
        <time>2022-05-07T09:49:12.126Z</time>
      </trkpt>
      <trkpt lat="45.24474" lon="6.16883">
        <ele>1851</ele>
        <time>2022-05-07T09:50:09.150Z</time>
      </trkpt>
      <trkpt lat="45.24454" lon="6.16901">
        <ele>1847</ele>
        <time>2022-05-07T09:50:10.137Z</time>
      </trkpt>
      <trkpt lat="45.24445" lon="6.16905">
        <ele>1846</ele>
        <time>2022-05-07T09:50:24.154Z</time>
      </trkpt>
      <trkpt lat="45.24438" lon="6.16915">
        <ele>1844</ele>
        <time>2022-05-07T09:50:39.169Z</time>
      </trkpt>
      <trkpt lat="45.2443" lon="6.16921">
        <ele>1842</ele>
        <time>2022-05-07T09:50:50.153Z</time>
      </trkpt>
      <trkpt lat="45.2442" lon="6.16922">
        <ele>1842</ele>
        <time>2022-05-07T09:50:59.093Z</time>
      </trkpt>
      <trkpt lat="45.24412" lon="6.16916">
        <ele>1841</ele>
        <time>2022-05-07T09:51:10.172Z</time>
      </trkpt>
      <trkpt lat="45.24406" lon="6.16906">
        <ele>1840</ele>
        <time>2022-05-07T09:51:23.164Z</time>
      </trkpt>
      <trkpt lat="45.24397" lon="6.16908">
        <ele>1838</ele>
        <time>2022-05-07T09:51:33.094Z</time>
      </trkpt>
      <trkpt lat="45.24388" lon="6.16913">
        <ele>1837</ele>
        <time>2022-05-07T09:51:43.145Z</time>
      </trkpt>
      <trkpt lat="45.24378" lon="6.16915">
        <ele>1835</ele>
        <time>2022-05-07T09:51:56.131Z</time>
      </trkpt>
      <trkpt lat="45.24368" lon="6.16913">
        <ele>1833</ele>
        <time>2022-05-07T09:52:06.104Z</time>
      </trkpt>
      <trkpt lat="45.24359" lon="6.16915">
        <ele>1831</ele>
        <time>2022-05-07T09:52:19.159Z</time>
      </trkpt>
      <trkpt lat="45.24349" lon="6.16914">
        <ele>1829</ele>
        <time>2022-05-07T09:52:29.157Z</time>
      </trkpt>
      <trkpt lat="45.2434" lon="6.1691">
        <ele>1825</ele>
        <time>2022-05-07T09:52:47.142Z</time>
      </trkpt>
      <trkpt lat="45.24331" lon="6.16916">
        <ele>1824</ele>
        <time>2022-05-07T09:52:57.139Z</time>
      </trkpt>
      <trkpt lat="45.24324" lon="6.16925">
        <ele>1823</ele>
        <time>2022-05-07T09:53:07.104Z</time>
      </trkpt>
      <trkpt lat="45.24316" lon="6.1693">
        <ele>1822</ele>
        <time>2022-05-07T09:53:18.155Z</time>
      </trkpt>
      <trkpt lat="45.2431" lon="6.16941">
        <ele>1822</ele>
        <time>2022-05-07T09:53:32.154Z</time>
      </trkpt>
      <trkpt lat="45.24302" lon="6.16949">
        <ele>1822</ele>
        <time>2022-05-07T09:53:46.147Z</time>
      </trkpt>
      <trkpt lat="45.24294" lon="6.16956">
        <ele>1821</ele>
        <time>2022-05-07T09:53:56.182Z</time>
      </trkpt>
      <trkpt lat="45.24287" lon="6.16966">
        <ele>1820</ele>
        <time>2022-05-07T09:54:09.173Z</time>
      </trkpt>
      <trkpt lat="45.24281" lon="6.16976">
        <ele>1817</ele>
        <time>2022-05-07T09:54:20.106Z</time>
      </trkpt>
      <trkpt lat="45.24276" lon="6.16987">
        <ele>1814</ele>
        <time>2022-05-07T09:54:35.141Z</time>
      </trkpt>
      <trkpt lat="45.24269" lon="6.16997">
        <ele>1812</ele>
        <time>2022-05-07T09:54:43.141Z</time>
      </trkpt>
      <trkpt lat="45.24268" lon="6.17011">
        <ele>1810</ele>
        <time>2022-05-07T09:54:53.136Z</time>
      </trkpt>
      <trkpt lat="45.24267" lon="6.17024">
        <ele>1809</ele>
        <time>2022-05-07T09:55:01.093Z</time>
      </trkpt>
      <trkpt lat="45.24263" lon="6.17036">
        <ele>1808</ele>
        <time>2022-05-07T09:55:10.108Z</time>
      </trkpt>
      <trkpt lat="45.24261" lon="6.17049">
        <ele>1808</ele>
        <time>2022-05-07T09:55:22.124Z</time>
      </trkpt>
      <trkpt lat="45.2426" lon="6.17048">
        <ele>1807</ele>
        <time>2022-05-07T09:55:36.119Z</time>
      </trkpt>
      <trkpt lat="45.2426" lon="6.17048">
        <ele>1807</ele>
        <time>2022-05-07T09:58:20.146Z</time>
      </trkpt>
      <trkpt lat="45.24257" lon="6.17084">
        <ele>1806</ele>
        <time>2022-05-07T09:58:21.135Z</time>
      </trkpt>
      <trkpt lat="45.24257" lon="6.171">
        <ele>1806</ele>
        <time>2022-05-07T09:58:24.114Z</time>
      </trkpt>
      <trkpt lat="45.24258" lon="6.17114">
        <ele>1806</ele>
        <time>2022-05-07T09:58:27.132Z</time>
      </trkpt>
      <trkpt lat="45.24259" lon="6.17135">
        <ele>1805</ele>
        <time>2022-05-07T09:58:31.095Z</time>
      </trkpt>
      <trkpt lat="45.24263" lon="6.17156">
        <ele>1805</ele>
        <time>2022-05-07T09:58:35.126Z</time>
      </trkpt>
      <trkpt lat="45.24265" lon="6.17176">
        <ele>1804</ele>
        <time>2022-05-07T09:58:40.126Z</time>
      </trkpt>
      <trkpt lat="45.24269" lon="6.17193">
        <ele>1803</ele>
        <time>2022-05-07T09:58:44.146Z</time>
      </trkpt>
      <trkpt lat="45.24273" lon="6.17208">
        <ele>1802</ele>
        <time>2022-05-07T09:58:48.128Z</time>
      </trkpt>
      <trkpt lat="45.24276" lon="6.17226">
        <ele>1802</ele>
        <time>2022-05-07T09:58:52.120Z</time>
      </trkpt>
      <trkpt lat="45.24281" lon="6.17243">
        <ele>1801</ele>
        <time>2022-05-07T09:58:56.144Z</time>
      </trkpt>
      <trkpt lat="45.24286" lon="6.1726">
        <ele>1800</ele>
        <time>2022-05-07T09:59:00.131Z</time>
      </trkpt>
      <trkpt lat="45.24293" lon="6.17277">
        <ele>1799</ele>
        <time>2022-05-07T09:59:04.124Z</time>
      </trkpt>
      <trkpt lat="45.24302" lon="6.17294">
        <ele>1798</ele>
        <time>2022-05-07T09:59:08.117Z</time>
      </trkpt>
      <trkpt lat="45.2431" lon="6.17313">
        <ele>1797</ele>
        <time>2022-05-07T09:59:12.139Z</time>
      </trkpt>
      <trkpt lat="45.24318" lon="6.1733">
        <ele>1796</ele>
        <time>2022-05-07T09:59:16.164Z</time>
      </trkpt>
      <trkpt lat="45.24327" lon="6.17346">
        <ele>1795</ele>
        <time>2022-05-07T09:59:20.150Z</time>
      </trkpt>
      <trkpt lat="45.24338" lon="6.17359">
        <ele>1793</ele>
        <time>2022-05-07T09:59:24.127Z</time>
      </trkpt>
      <trkpt lat="45.24353" lon="6.17371">
        <ele>1792</ele>
        <time>2022-05-07T09:59:28.150Z</time>
      </trkpt>
      <trkpt lat="45.24365" lon="6.17385">
        <ele>1790</ele>
        <time>2022-05-07T09:59:33.130Z</time>
      </trkpt>
      <trkpt lat="45.24374" lon="6.174">
        <ele>1789</ele>
        <time>2022-05-07T09:59:38.116Z</time>
      </trkpt>
      <trkpt lat="45.24381" lon="6.17413">
        <ele>1787</ele>
        <time>2022-05-07T09:59:42.145Z</time>
      </trkpt>
      <trkpt lat="45.24389" lon="6.17428">
        <ele>1786</ele>
        <time>2022-05-07T09:59:46.170Z</time>
      </trkpt>
      <trkpt lat="45.24395" lon="6.17442">
        <ele>1784</ele>
        <time>2022-05-07T09:59:50.158Z</time>
      </trkpt>
      <trkpt lat="45.24403" lon="6.17455">
        <ele>1783</ele>
        <time>2022-05-07T09:59:53.144Z</time>
      </trkpt>
      <trkpt lat="45.24412" lon="6.17468">
        <ele>1782</ele>
        <time>2022-05-07T09:59:56.149Z</time>
      </trkpt>
      <trkpt lat="45.24425" lon="6.17481">
        <ele>1780</ele>
        <time>2022-05-07T10:00:02.169Z</time>
      </trkpt>
      <trkpt lat="45.24435" lon="6.1749">
        <ele>1779</ele>
        <time>2022-05-07T10:00:07.145Z</time>
      </trkpt>
      <trkpt lat="45.24441" lon="6.17496">
        <ele>1773</ele>
        <time>2022-05-07T10:00:24.127Z</time>
      </trkpt>
      <trkpt lat="45.24441" lon="6.17496">
        <ele>1773</ele>
        <time>2022-05-07T10:02:24.156Z</time>
      </trkpt>
      <trkpt lat="45.24459" lon="6.17515">
        <ele>1761</ele>
        <time>2022-05-07T10:02:25.175Z</time>
      </trkpt>
      <trkpt lat="45.24465" lon="6.17526">
        <ele>1761</ele>
        <time>2022-05-07T10:02:31.121Z</time>
      </trkpt>
      <trkpt lat="45.24471" lon="6.17537">
        <ele>1760</ele>
        <time>2022-05-07T10:02:35.151Z</time>
      </trkpt>
      <trkpt lat="45.24476" lon="6.17548">
        <ele>1760</ele>
        <time>2022-05-07T10:02:38.161Z</time>
      </trkpt>
      <trkpt lat="45.24482" lon="6.17559">
        <ele>1759</ele>
        <time>2022-05-07T10:02:42.106Z</time>
      </trkpt>
      <trkpt lat="45.24489" lon="6.1757">
        <ele>1759</ele>
        <time>2022-05-07T10:02:45.118Z</time>
      </trkpt>
      <trkpt lat="45.24498" lon="6.17576">
        <ele>1758</ele>
        <time>2022-05-07T10:02:48.108Z</time>
      </trkpt>
      <trkpt lat="45.2451" lon="6.17586">
        <ele>1757</ele>
        <time>2022-05-07T10:02:52.144Z</time>
      </trkpt>
      <trkpt lat="45.24519" lon="6.176">
        <ele>1755</ele>
        <time>2022-05-07T10:02:57.161Z</time>
      </trkpt>
      <trkpt lat="45.24528" lon="6.1761">
        <ele>1754</ele>
        <time>2022-05-07T10:03:01.149Z</time>
      </trkpt>
      <trkpt lat="45.24538" lon="6.17616">
        <ele>1753</ele>
        <time>2022-05-07T10:03:04.102Z</time>
      </trkpt>
      <trkpt lat="45.2455" lon="6.17623">
        <ele>1752</ele>
        <time>2022-05-07T10:03:07.167Z</time>
      </trkpt>
      <trkpt lat="45.2456" lon="6.17636">
        <ele>1751</ele>
        <time>2022-05-07T10:03:11.148Z</time>
      </trkpt>
      <trkpt lat="45.24573" lon="6.17648">
        <ele>1749</ele>
        <time>2022-05-07T10:03:17.153Z</time>
      </trkpt>
      <trkpt lat="45.24581" lon="6.17655">
        <ele>1748</ele>
        <time>2022-05-07T10:03:21.121Z</time>
      </trkpt>
      <trkpt lat="45.2459" lon="6.17663">
        <ele>1747</ele>
        <time>2022-05-07T10:03:24.179Z</time>
      </trkpt>
      <trkpt lat="45.24599" lon="6.1767">
        <ele>1746</ele>
        <time>2022-05-07T10:03:27.179Z</time>
      </trkpt>
      <trkpt lat="45.24612" lon="6.17677">
        <ele>1745</ele>
        <time>2022-05-07T10:03:31.147Z</time>
      </trkpt>
      <trkpt lat="45.24625" lon="6.17684">
        <ele>1743</ele>
        <time>2022-05-07T10:03:36.159Z</time>
      </trkpt>
      <trkpt lat="45.24634" lon="6.17687">
        <ele>1741</ele>
        <time>2022-05-07T10:03:48.133Z</time>
      </trkpt>
      <trkpt lat="45.24634" lon="6.17687">
        <ele>1738</ele>
        <time>2022-05-07T10:04:02.122Z</time>
      </trkpt>
      <trkpt lat="45.24634" lon="6.17687">
        <ele>1738</ele>
        <time>2022-05-07T10:04:19.161Z</time>
      </trkpt>
      <trkpt lat="45.24654" lon="6.17704">
        <ele>1734</ele>
        <time>2022-05-07T10:04:20.156Z</time>
      </trkpt>
      <trkpt lat="45.24661" lon="6.17712">
        <ele>1733</ele>
        <time>2022-05-07T10:04:25.152Z</time>
      </trkpt>
      <trkpt lat="45.24668" lon="6.17721">
        <ele>1732</ele>
        <time>2022-05-07T10:04:30.110Z</time>
      </trkpt>
      <trkpt lat="45.24673" lon="6.1773">
        <ele>1728</ele>
        <time>2022-05-07T10:04:48.177Z</time>
      </trkpt>
      <trkpt lat="45.24673" lon="6.1773">
        <ele>1728</ele>
        <time>2022-05-07T10:06:28.160Z</time>
      </trkpt>
      <trkpt lat="45.24684" lon="6.17702">
        <ele>1725</ele>
        <time>2022-05-07T10:06:29.085Z</time>
      </trkpt>
      <trkpt lat="45.24681" lon="6.17689">
        <ele>1721</ele>
        <time>2022-05-07T10:06:50.076Z</time>
      </trkpt>
      <trkpt lat="45.24683" lon="6.17686">
        <ele>1720</ele>
        <time>2022-05-07T10:07:05.095Z</time>
      </trkpt>
      <trkpt lat="45.24683" lon="6.17686">
        <ele>1681</ele>
        <time>2022-05-07T10:07:53.724Z</time>
      </trkpt>
    </trkseg>
  </trk>
</gpx>